<?xml version="1.0" encoding="UTF-8" standalone="no" ?>
<gpx xmlns="http://www.topografix.com/GPX/1/1" xmlns:xsi="http://www.w3.org/2001/XMLSchema-instance" xsi:schemaLocation="http://www.topografix.com/GPX/1/1 http://www.topografix.com/GPX/1/1/gpx.xsd" version="1.1" creator="VisuGPX - https://www.visugpx.com">
  <metadata>
    <name>2021-11-14  Etoile</name>
    <desc><![CDATA[Palama, Ouides, col de l'Etoile, Petit Sanguin, Grottes Loubière, jardins entre les Mourets et la Parade.
<p>Heure de départ: 08:59 14 nov. 2021<br/>Heure d'arrivée: 12:21 14 nov. 2021<br/>Distance: 23,8 km (03:21)<br/>Temps déplacement: 02:21<br/>Vitesse moyenne: 7,08 km/h<br/>Vitesse moyenne mouv.: 10,08 km/h<br/>Vitesse Max.: 29,55 km/h<br/>Altitude minimale: 120 m<br/>Altitude maximale: 525 m<br/>Vitesse de montée: 485,1 m/h<br/>Vitesse de descente: 851,7 m/h<br/>Gain d'altitude: 637 m<br/>Perte d'altitude: 616 m<br/>Temps de montée: 01:18<br/>Temps de descente: 00:43<br/></p><hr align="center" width="480" style="height: 2px; width: 517px"/>]]></desc>
  </metadata>
  <wpt lat="43.35229" lon="5.44447">
    <ele>120.93</ele>
    <name><![CDATA[]]></name>
    <type><![CDATA[Point de départ]]></type>
  </wpt>
  <wpt lat="43.35229" lon="5.44447">
    <ele>120.93</ele>
    <name><![CDATA[]]></name>
    <type><![CDATA[Point de départ]]></type>
  </wpt>
  <wpt lat="43.35154" lon="5.44438">
    <ele>140.27</ele>
    <name><![CDATA[]]></name>
    <desc><![CDATA[<p><br /><h3>Nom: Segment: 1</h3><br />Heure de départ: 08:59 14 nov. 2021<br/>Heure d'arrivée: 12:21 14 nov. 2021<br/>Distance: 23,8km (03:21)<br/>Temps déplacement: 02:21<br/>Vitesse moyenne: 7,08 km/h<br/>Vitesse moyenne mouv.: 10,08 km/h<br/>Vitesse Max.: 29,55 km/h<br/>Altitude minimale: 120 m<br/>Altitude maximale: 525 m<br/>Vitesse de montée: 485,1 m/h<br/>Vitesse de descente: 851,7 m/h<br/>Gain d'altitude: 637 m<br/>Perte d'altitude: 616 m<br/>Temps de montée: 01:18<br/>Temps de descente: 00:43<br/></p>]]></desc>
    <type><![CDATA[Point d'arrivée]]></type>
  </wpt>
  <trk>
    <name><![CDATA[2021-11-14 08:58:54]]></name>
    <desc><![CDATA[<p>Heure de départ: 08:59 14 nov. 2021<br/>Heure d'arrivée: 12:21 14 nov. 2021<br/>Distance: 23,8 km (03:21)<br/>Temps déplacement: 02:21<br/>Vitesse moyenne: 7,08 km/h<br/>Vitesse moyenne mouv.: 10,08 km/h<br/>Vitesse Max.: 29,55 km/h<br/>Altitude minimale: 120 m<br/>Altitude maximale: 525 m<br/>Vitesse de montée: 485,1 m/h<br/>Vitesse de descente: 851,7 m/h<br/>Gain d'altitude: 637 m<br/>Perte d'altitude: 616 m<br/>Temps de montée: 01:18<br/>Temps de descente: 00:43<br/></p><hr align="center" width="480" style="height: 2px; width: 517px"/>]]></desc>
    <trkseg>
      <trkpt lat="43.35229" lon="5.44447">
        <ele>120.94</ele>
        <time>2021-11-14T07:59:32.089Z</time>
      </trkpt>
      <trkpt lat="43.35238" lon="5.44472">
        <ele>135.47</ele>
        <time>2021-11-14T07:59:39.000Z</time>
      </trkpt>
      <trkpt lat="43.35245" lon="5.44496">
        <ele>136.26</ele>
        <time>2021-11-14T07:59:45.000Z</time>
      </trkpt>
      <trkpt lat="43.35252" lon="5.4452">
        <ele>137.1</ele>
        <time>2021-11-14T07:59:50.000Z</time>
      </trkpt>
      <trkpt lat="43.35252" lon="5.44548">
        <ele>137.93</ele>
        <time>2021-11-14T07:59:57.000Z</time>
      </trkpt>
      <trkpt lat="43.35254" lon="5.44574">
        <ele>138.85</ele>
        <time>2021-11-14T08:00:03.000Z</time>
      </trkpt>
      <trkpt lat="43.35262" lon="5.44601">
        <ele>139.57</ele>
        <time>2021-11-14T08:00:09.000Z</time>
      </trkpt>
      <trkpt lat="43.35272" lon="5.44624">
        <ele>140.32</ele>
        <time>2021-11-14T08:00:15.000Z</time>
      </trkpt>
      <trkpt lat="43.35279" lon="5.44647">
        <ele>140.77</ele>
        <time>2021-11-14T08:00:20.000Z</time>
      </trkpt>
      <trkpt lat="43.35288" lon="5.4467">
        <ele>141.64</ele>
        <time>2021-11-14T08:00:25.000Z</time>
      </trkpt>
      <trkpt lat="43.35301" lon="5.44692">
        <ele>142.31</ele>
        <time>2021-11-14T08:00:29.000Z</time>
      </trkpt>
      <trkpt lat="43.35309" lon="5.44714">
        <ele>143.39</ele>
        <time>2021-11-14T08:00:32.000Z</time>
      </trkpt>
      <trkpt lat="43.35317" lon="5.44743">
        <ele>143.59</ele>
        <time>2021-11-14T08:00:36.000Z</time>
      </trkpt>
      <trkpt lat="43.35327" lon="5.44774">
        <ele>144.13</ele>
        <time>2021-11-14T08:00:40.000Z</time>
      </trkpt>
      <trkpt lat="43.35335" lon="5.44796">
        <ele>144.65</ele>
        <time>2021-11-14T08:00:43.000Z</time>
      </trkpt>
      <trkpt lat="43.35343" lon="5.44819">
        <ele>144.66</ele>
        <time>2021-11-14T08:00:46.000Z</time>
      </trkpt>
      <trkpt lat="43.3535" lon="5.44844">
        <ele>143.7</ele>
        <time>2021-11-14T08:00:49.000Z</time>
      </trkpt>
      <trkpt lat="43.35362" lon="5.44869">
        <ele>142.23</ele>
        <time>2021-11-14T08:00:52.000Z</time>
      </trkpt>
      <trkpt lat="43.35376" lon="5.44895">
        <ele>141.34</ele>
        <time>2021-11-14T08:00:55.000Z</time>
      </trkpt>
      <trkpt lat="43.35386" lon="5.44919">
        <ele>141.61</ele>
        <time>2021-11-14T08:00:58.000Z</time>
      </trkpt>
      <trkpt lat="43.35393" lon="5.44943">
        <ele>142.45</ele>
        <time>2021-11-14T08:01:01.000Z</time>
      </trkpt>
      <trkpt lat="43.35408" lon="5.44966">
        <ele>144.32</ele>
        <time>2021-11-14T08:01:05.000Z</time>
      </trkpt>
      <trkpt lat="43.35425" lon="5.44986">
        <ele>145.63</ele>
        <time>2021-11-14T08:01:09.000Z</time>
      </trkpt>
      <trkpt lat="43.35442" lon="5.45006">
        <ele>146.3</ele>
        <time>2021-11-14T08:01:13.000Z</time>
      </trkpt>
      <trkpt lat="43.35459" lon="5.45025">
        <ele>147.07</ele>
        <time>2021-11-14T08:01:17.000Z</time>
      </trkpt>
      <trkpt lat="43.35474" lon="5.45043">
        <ele>147.82</ele>
        <time>2021-11-14T08:01:21.000Z</time>
      </trkpt>
      <trkpt lat="43.35489" lon="5.45059">
        <ele>148.26</ele>
        <time>2021-11-14T08:01:25.000Z</time>
      </trkpt>
      <trkpt lat="43.35503" lon="5.45076">
        <ele>148.74</ele>
        <time>2021-11-14T08:01:29.000Z</time>
      </trkpt>
      <trkpt lat="43.3552" lon="5.45095">
        <ele>149.15</ele>
        <time>2021-11-14T08:01:34.000Z</time>
      </trkpt>
      <trkpt lat="43.35536" lon="5.45114">
        <ele>149.65</ele>
        <time>2021-11-14T08:01:40.000Z</time>
      </trkpt>
      <trkpt lat="43.3555" lon="5.45131">
        <ele>149.61</ele>
        <time>2021-11-14T08:01:46.000Z</time>
      </trkpt>
      <trkpt lat="43.35566" lon="5.45149">
        <ele>149.93</ele>
        <time>2021-11-14T08:06:06.000Z</time>
      </trkpt>
      <trkpt lat="43.35584" lon="5.45156">
        <ele>150.34</ele>
        <time>2021-11-14T08:06:13.000Z</time>
      </trkpt>
      <trkpt lat="43.35591" lon="5.45129">
        <ele>151.44</ele>
        <time>2021-11-14T08:06:18.000Z</time>
      </trkpt>
      <trkpt lat="43.35595" lon="5.45104">
        <ele>152.16</ele>
        <time>2021-11-14T08:06:23.000Z</time>
      </trkpt>
      <trkpt lat="43.35604" lon="5.45078">
        <ele>152.9</ele>
        <time>2021-11-14T08:06:29.000Z</time>
      </trkpt>
      <trkpt lat="43.35625" lon="5.45084">
        <ele>153.8</ele>
        <time>2021-11-14T08:06:36.000Z</time>
      </trkpt>
      <trkpt lat="43.35643" lon="5.45091">
        <ele>154.3</ele>
        <time>2021-11-14T08:06:41.000Z</time>
      </trkpt>
      <trkpt lat="43.35662" lon="5.45101">
        <ele>154.91</ele>
        <time>2021-11-14T08:06:47.000Z</time>
      </trkpt>
      <trkpt lat="43.3568" lon="5.45109">
        <ele>155.72</ele>
        <time>2021-11-14T08:06:53.000Z</time>
      </trkpt>
      <trkpt lat="43.35699" lon="5.45109">
        <ele>156.38</ele>
        <time>2021-11-14T08:06:59.000Z</time>
      </trkpt>
      <trkpt lat="43.35705" lon="5.45082">
        <ele>157.12</ele>
        <time>2021-11-14T08:07:05.000Z</time>
      </trkpt>
      <trkpt lat="43.3571" lon="5.45056">
        <ele>157.95</ele>
        <time>2021-11-14T08:07:11.000Z</time>
      </trkpt>
      <trkpt lat="43.35715" lon="5.45031">
        <ele>158.45</ele>
        <time>2021-11-14T08:07:16.000Z</time>
      </trkpt>
      <trkpt lat="43.3572" lon="5.45007">
        <ele>158.72</ele>
        <time>2021-11-14T08:07:21.000Z</time>
      </trkpt>
      <trkpt lat="43.35724" lon="5.44983">
        <ele>158.95</ele>
        <time>2021-11-14T08:07:26.000Z</time>
      </trkpt>
      <trkpt lat="43.35745" lon="5.44979">
        <ele>159.47</ele>
        <time>2021-11-14T08:07:34.000Z</time>
      </trkpt>
      <trkpt lat="43.35764" lon="5.44987">
        <ele>160.22</ele>
        <time>2021-11-14T08:07:40.000Z</time>
      </trkpt>
      <trkpt lat="43.35782" lon="5.44992">
        <ele>161.02</ele>
        <time>2021-11-14T08:07:46.000Z</time>
      </trkpt>
      <trkpt lat="43.358" lon="5.44996">
        <ele>161.5</ele>
        <time>2021-11-14T08:07:52.000Z</time>
      </trkpt>
      <trkpt lat="43.35819" lon="5.45004">
        <ele>162.42</ele>
        <time>2021-11-14T08:07:58.000Z</time>
      </trkpt>
      <trkpt lat="43.35837" lon="5.4501">
        <ele>163.17</ele>
        <time>2021-11-14T08:08:04.000Z</time>
      </trkpt>
      <trkpt lat="43.35856" lon="5.45014">
        <ele>163.9</ele>
        <time>2021-11-14T08:08:10.000Z</time>
      </trkpt>
      <trkpt lat="43.35869" lon="5.44996">
        <ele>164.4</ele>
        <time>2021-11-14T08:08:17.000Z</time>
      </trkpt>
      <trkpt lat="43.35875" lon="5.44969">
        <ele>164.77</ele>
        <time>2021-11-14T08:08:23.000Z</time>
      </trkpt>
      <trkpt lat="43.35881" lon="5.44942">
        <ele>165.16</ele>
        <time>2021-11-14T08:08:29.000Z</time>
      </trkpt>
      <trkpt lat="43.35889" lon="5.44914">
        <ele>163.77</ele>
        <time>2021-11-14T08:08:35.000Z</time>
      </trkpt>
      <trkpt lat="43.35895" lon="5.44891">
        <ele>161.56</ele>
        <time>2021-11-14T08:08:39.000Z</time>
      </trkpt>
      <trkpt lat="43.35902" lon="5.44867">
        <ele>159.52</ele>
        <time>2021-11-14T08:08:44.000Z</time>
      </trkpt>
      <trkpt lat="43.35918" lon="5.44854">
        <ele>159.19</ele>
        <time>2021-11-14T08:08:49.000Z</time>
      </trkpt>
      <trkpt lat="43.35938" lon="5.44849">
        <ele>159.63</ele>
        <time>2021-11-14T08:08:55.000Z</time>
      </trkpt>
      <trkpt lat="43.35958" lon="5.4485">
        <ele>160.69</ele>
        <time>2021-11-14T08:09:01.000Z</time>
      </trkpt>
      <trkpt lat="43.35977" lon="5.44848">
        <ele>161.16</ele>
        <time>2021-11-14T08:09:07.000Z</time>
      </trkpt>
      <trkpt lat="43.35995" lon="5.44842">
        <ele>162.08</ele>
        <time>2021-11-14T08:09:13.000Z</time>
      </trkpt>
      <trkpt lat="43.36014" lon="5.44834">
        <ele>162.56</ele>
        <time>2021-11-14T08:09:19.000Z</time>
      </trkpt>
      <trkpt lat="43.36033" lon="5.44827">
        <ele>163.27</ele>
        <time>2021-11-14T08:09:25.000Z</time>
      </trkpt>
      <trkpt lat="43.36052" lon="5.44821">
        <ele>164.13</ele>
        <time>2021-11-14T08:09:31.000Z</time>
      </trkpt>
      <trkpt lat="43.36069" lon="5.44814">
        <ele>165.02</ele>
        <time>2021-11-14T08:09:37.000Z</time>
      </trkpt>
      <trkpt lat="43.36089" lon="5.44806">
        <ele>166.39</ele>
        <time>2021-11-14T08:09:44.000Z</time>
      </trkpt>
      <trkpt lat="43.36106" lon="5.44794">
        <ele>167.35</ele>
        <time>2021-11-14T08:09:50.000Z</time>
      </trkpt>
      <trkpt lat="43.36125" lon="5.44782">
        <ele>168</ele>
        <time>2021-11-14T08:09:56.000Z</time>
      </trkpt>
      <trkpt lat="43.36145" lon="5.44771">
        <ele>168.91</ele>
        <time>2021-11-14T08:10:03.000Z</time>
      </trkpt>
      <trkpt lat="43.36163" lon="5.44767">
        <ele>170.07</ele>
        <time>2021-11-14T08:10:09.000Z</time>
      </trkpt>
      <trkpt lat="43.36181" lon="5.4476">
        <ele>171.35</ele>
        <time>2021-11-14T08:10:16.000Z</time>
      </trkpt>
      <trkpt lat="43.36201" lon="5.44753">
        <ele>172.44</ele>
        <time>2021-11-14T08:10:23.000Z</time>
      </trkpt>
      <trkpt lat="43.36223" lon="5.44749">
        <ele>173.23</ele>
        <time>2021-11-14T08:10:30.000Z</time>
      </trkpt>
      <trkpt lat="43.36242" lon="5.44743">
        <ele>173.85</ele>
        <time>2021-11-14T08:10:36.000Z</time>
      </trkpt>
      <trkpt lat="43.3626" lon="5.4474">
        <ele>174.5</ele>
        <time>2021-11-14T08:10:42.000Z</time>
      </trkpt>
      <trkpt lat="43.3628" lon="5.44737">
        <ele>175.25</ele>
        <time>2021-11-14T08:10:49.000Z</time>
      </trkpt>
      <trkpt lat="43.36301" lon="5.44732">
        <ele>176.04</ele>
        <time>2021-11-14T08:10:56.000Z</time>
      </trkpt>
      <trkpt lat="43.36319" lon="5.44727">
        <ele>176.48</ele>
        <time>2021-11-14T08:11:02.000Z</time>
      </trkpt>
      <trkpt lat="43.36338" lon="5.44719">
        <ele>177.26</ele>
        <time>2021-11-14T08:11:08.000Z</time>
      </trkpt>
      <trkpt lat="43.36355" lon="5.4471">
        <ele>178.06</ele>
        <time>2021-11-14T08:11:14.000Z</time>
      </trkpt>
      <trkpt lat="43.36373" lon="5.44703">
        <ele>179</ele>
        <time>2021-11-14T08:11:20.000Z</time>
      </trkpt>
      <trkpt lat="43.36394" lon="5.44703">
        <ele>179.88</ele>
        <time>2021-11-14T08:11:27.000Z</time>
      </trkpt>
      <trkpt lat="43.36414" lon="5.44709">
        <ele>181.19</ele>
        <time>2021-11-14T08:11:34.000Z</time>
      </trkpt>
      <trkpt lat="43.36435" lon="5.44712">
        <ele>181.65</ele>
        <time>2021-11-14T08:11:40.000Z</time>
      </trkpt>
      <trkpt lat="43.36454" lon="5.44709">
        <ele>182.15</ele>
        <time>2021-11-14T08:11:46.000Z</time>
      </trkpt>
      <trkpt lat="43.36473" lon="5.44706">
        <ele>182.73</ele>
        <time>2021-11-14T08:11:51.000Z</time>
      </trkpt>
      <trkpt lat="43.36492" lon="5.44705">
        <ele>183.33</ele>
        <time>2021-11-14T08:11:57.000Z</time>
      </trkpt>
      <trkpt lat="43.36513" lon="5.44704">
        <ele>183.96</ele>
        <time>2021-11-14T08:12:03.000Z</time>
      </trkpt>
      <trkpt lat="43.36533" lon="5.44696">
        <ele>184.45</ele>
        <time>2021-11-14T08:12:09.000Z</time>
      </trkpt>
      <trkpt lat="43.36542" lon="5.44673">
        <ele>185.52</ele>
        <time>2021-11-14T08:12:15.000Z</time>
      </trkpt>
      <trkpt lat="43.36552" lon="5.4465">
        <ele>186.68</ele>
        <time>2021-11-14T08:12:22.000Z</time>
      </trkpt>
      <trkpt lat="43.36572" lon="5.4464">
        <ele>188.05</ele>
        <time>2021-11-14T08:12:30.000Z</time>
      </trkpt>
      <trkpt lat="43.3659" lon="5.44645">
        <ele>188.78</ele>
        <time>2021-11-14T08:12:36.000Z</time>
      </trkpt>
      <trkpt lat="43.36605" lon="5.44662">
        <ele>189.55</ele>
        <time>2021-11-14T08:12:42.000Z</time>
      </trkpt>
      <trkpt lat="43.36625" lon="5.44669">
        <ele>190.54</ele>
        <time>2021-11-14T08:12:48.000Z</time>
      </trkpt>
      <trkpt lat="43.36644" lon="5.44671">
        <ele>191.42</ele>
        <time>2021-11-14T08:12:55.000Z</time>
      </trkpt>
      <trkpt lat="43.36663" lon="5.4468">
        <ele>192.85</ele>
        <time>2021-11-14T08:13:03.000Z</time>
      </trkpt>
      <trkpt lat="43.36679" lon="5.44694">
        <ele>193.82</ele>
        <time>2021-11-14T08:13:09.000Z</time>
      </trkpt>
      <trkpt lat="43.36696" lon="5.44708">
        <ele>194.97</ele>
        <time>2021-11-14T08:13:16.000Z</time>
      </trkpt>
      <trkpt lat="43.36714" lon="5.44713">
        <ele>195.58</ele>
        <time>2021-11-14T08:13:22.000Z</time>
      </trkpt>
      <trkpt lat="43.36732" lon="5.4472">
        <ele>196.56</ele>
        <time>2021-11-14T08:13:28.000Z</time>
      </trkpt>
      <trkpt lat="43.36749" lon="5.44735">
        <ele>197.49</ele>
        <time>2021-11-14T08:13:35.000Z</time>
      </trkpt>
      <trkpt lat="43.36762" lon="5.44753">
        <ele>198.61</ele>
        <time>2021-11-14T08:13:42.000Z</time>
      </trkpt>
      <trkpt lat="43.36775" lon="5.44771">
        <ele>199.44</ele>
        <time>2021-11-14T08:13:48.000Z</time>
      </trkpt>
      <trkpt lat="43.36789" lon="5.44791">
        <ele>201.04</ele>
        <time>2021-11-14T08:13:56.000Z</time>
      </trkpt>
      <trkpt lat="43.36804" lon="5.44806">
        <ele>202.47</ele>
        <time>2021-11-14T08:14:03.000Z</time>
      </trkpt>
      <trkpt lat="43.36822" lon="5.448">
        <ele>204.54</ele>
        <time>2021-11-14T08:14:12.000Z</time>
      </trkpt>
      <trkpt lat="43.3684" lon="5.44797">
        <ele>207.12</ele>
        <time>2021-11-14T08:14:22.000Z</time>
      </trkpt>
      <trkpt lat="43.36856" lon="5.44811">
        <ele>208.62</ele>
        <time>2021-11-14T08:14:30.000Z</time>
      </trkpt>
      <trkpt lat="43.3687" lon="5.4483">
        <ele>209.73</ele>
        <time>2021-11-14T08:14:39.000Z</time>
      </trkpt>
      <trkpt lat="43.36883" lon="5.4485">
        <ele>210.97</ele>
        <time>2021-11-14T08:14:49.000Z</time>
      </trkpt>
      <trkpt lat="43.36901" lon="5.44851">
        <ele>212.54</ele>
        <time>2021-11-14T08:14:58.000Z</time>
      </trkpt>
      <trkpt lat="43.3692" lon="5.44853">
        <ele>213.95</ele>
        <time>2021-11-14T08:15:08.000Z</time>
      </trkpt>
      <trkpt lat="43.36939" lon="5.44861">
        <ele>214.76</ele>
        <time>2021-11-14T08:15:17.000Z</time>
      </trkpt>
      <trkpt lat="43.36955" lon="5.44876">
        <ele>215.55</ele>
        <time>2021-11-14T08:15:26.000Z</time>
      </trkpt>
      <trkpt lat="43.36973" lon="5.44874">
        <ele>216.78</ele>
        <time>2021-11-14T08:15:35.000Z</time>
      </trkpt>
      <trkpt lat="43.36989" lon="5.44862">
        <ele>218.35</ele>
        <time>2021-11-14T08:15:43.000Z</time>
      </trkpt>
      <trkpt lat="43.37005" lon="5.44849">
        <ele>220.5</ele>
        <time>2021-11-14T08:15:54.000Z</time>
      </trkpt>
      <trkpt lat="43.37022" lon="5.44842">
        <ele>223.28</ele>
        <time>2021-11-14T08:16:05.000Z</time>
      </trkpt>
      <trkpt lat="43.3704" lon="5.44837">
        <ele>226.76</ele>
        <time>2021-11-14T08:16:19.000Z</time>
      </trkpt>
      <trkpt lat="43.37058" lon="5.44835">
        <ele>229.86</ele>
        <time>2021-11-14T08:16:33.000Z</time>
      </trkpt>
      <trkpt lat="43.37076" lon="5.44833">
        <ele>232.54</ele>
        <time>2021-11-14T08:16:48.000Z</time>
      </trkpt>
      <trkpt lat="43.37094" lon="5.44828">
        <ele>234.66</ele>
        <time>2021-11-14T08:16:59.000Z</time>
      </trkpt>
      <trkpt lat="43.37112" lon="5.44824">
        <ele>236.57</ele>
        <time>2021-11-14T08:17:10.000Z</time>
      </trkpt>
      <trkpt lat="43.37132" lon="5.44825">
        <ele>238.61</ele>
        <time>2021-11-14T08:17:23.000Z</time>
      </trkpt>
      <trkpt lat="43.37151" lon="5.44829">
        <ele>239.41</ele>
        <time>2021-11-14T08:17:34.000Z</time>
      </trkpt>
      <trkpt lat="43.37169" lon="5.44835">
        <ele>239.74</ele>
        <time>2021-11-14T08:17:43.000Z</time>
      </trkpt>
      <trkpt lat="43.37187" lon="5.4484">
        <ele>240.1</ele>
        <time>2021-11-14T08:17:51.000Z</time>
      </trkpt>
      <trkpt lat="43.37205" lon="5.44844">
        <ele>240.66</ele>
        <time>2021-11-14T08:17:57.000Z</time>
      </trkpt>
      <trkpt lat="43.37223" lon="5.44844">
        <ele>241.24</ele>
        <time>2021-11-14T08:18:02.000Z</time>
      </trkpt>
      <trkpt lat="43.3724" lon="5.44857">
        <ele>240.85</ele>
        <time>2021-11-14T08:18:08.000Z</time>
      </trkpt>
      <trkpt lat="43.37257" lon="5.44867">
        <ele>242.02</ele>
        <time>2021-11-14T08:21:57.000Z</time>
      </trkpt>
      <trkpt lat="43.37276" lon="5.44871">
        <ele>244.12</ele>
        <time>2021-11-14T08:22:08.000Z</time>
      </trkpt>
      <trkpt lat="43.37295" lon="5.44872">
        <ele>245.38</ele>
        <time>2021-11-14T08:22:18.000Z</time>
      </trkpt>
      <trkpt lat="43.37313" lon="5.44869">
        <ele>247.38</ele>
        <time>2021-11-14T08:22:29.000Z</time>
      </trkpt>
      <trkpt lat="43.37332" lon="5.44863">
        <ele>249.76</ele>
        <time>2021-11-14T08:22:41.000Z</time>
      </trkpt>
      <trkpt lat="43.3735" lon="5.44854">
        <ele>251.72</ele>
        <time>2021-11-14T08:22:52.000Z</time>
      </trkpt>
      <trkpt lat="43.37368" lon="5.44847">
        <ele>253.97</ele>
        <time>2021-11-14T08:23:03.000Z</time>
      </trkpt>
      <trkpt lat="43.37387" lon="5.44841">
        <ele>255.55</ele>
        <time>2021-11-14T08:23:12.000Z</time>
      </trkpt>
      <trkpt lat="43.37405" lon="5.44839">
        <ele>257.26</ele>
        <time>2021-11-14T08:23:22.000Z</time>
      </trkpt>
      <trkpt lat="43.37424" lon="5.44835">
        <ele>258.77</ele>
        <time>2021-11-14T08:23:31.000Z</time>
      </trkpt>
      <trkpt lat="43.37443" lon="5.44835">
        <ele>260.64</ele>
        <time>2021-11-14T08:23:40.000Z</time>
      </trkpt>
      <trkpt lat="43.37462" lon="5.44836">
        <ele>262.62</ele>
        <time>2021-11-14T08:23:51.000Z</time>
      </trkpt>
      <trkpt lat="43.37482" lon="5.44841">
        <ele>265.09</ele>
        <time>2021-11-14T08:24:01.000Z</time>
      </trkpt>
      <trkpt lat="43.37501" lon="5.44843">
        <ele>267.24</ele>
        <time>2021-11-14T08:24:11.000Z</time>
      </trkpt>
      <trkpt lat="43.37521" lon="5.44843">
        <ele>269.96</ele>
        <time>2021-11-14T08:24:23.000Z</time>
      </trkpt>
      <trkpt lat="43.37539" lon="5.44842">
        <ele>272.06</ele>
        <time>2021-11-14T08:24:34.000Z</time>
      </trkpt>
      <trkpt lat="43.37558" lon="5.44838">
        <ele>274.91</ele>
        <time>2021-11-14T08:24:47.000Z</time>
      </trkpt>
      <trkpt lat="43.37576" lon="5.44838">
        <ele>277.52</ele>
        <time>2021-11-14T08:24:59.000Z</time>
      </trkpt>
      <trkpt lat="43.37596" lon="5.4484">
        <ele>279.82</ele>
        <time>2021-11-14T08:25:11.000Z</time>
      </trkpt>
      <trkpt lat="43.37614" lon="5.44844">
        <ele>282.2</ele>
        <time>2021-11-14T08:25:22.000Z</time>
      </trkpt>
      <trkpt lat="43.37632" lon="5.44852">
        <ele>285.83</ele>
        <time>2021-11-14T08:25:39.000Z</time>
      </trkpt>
      <trkpt lat="43.37649" lon="5.44865">
        <ele>288.54</ele>
        <time>2021-11-14T08:25:54.000Z</time>
      </trkpt>
      <trkpt lat="43.37663" lon="5.44881">
        <ele>290.48</ele>
        <time>2021-11-14T08:26:07.000Z</time>
      </trkpt>
      <trkpt lat="43.37677" lon="5.44899">
        <ele>293.41</ele>
        <time>2021-11-14T08:26:23.000Z</time>
      </trkpt>
      <trkpt lat="43.37691" lon="5.44917">
        <ele>294.74</ele>
        <time>2021-11-14T08:26:37.000Z</time>
      </trkpt>
      <trkpt lat="43.37703" lon="5.44936">
        <ele>297.52</ele>
        <time>2021-11-14T08:26:53.000Z</time>
      </trkpt>
      <trkpt lat="43.37713" lon="5.44959">
        <ele>300.08</ele>
        <time>2021-11-14T08:27:07.000Z</time>
      </trkpt>
      <trkpt lat="43.37724" lon="5.4498">
        <ele>302.72</ele>
        <time>2021-11-14T08:27:22.000Z</time>
      </trkpt>
      <trkpt lat="43.3773" lon="5.45006">
        <ele>303.89</ele>
        <time>2021-11-14T08:27:37.000Z</time>
      </trkpt>
      <trkpt lat="43.37734" lon="5.4503">
        <ele>307.25</ele>
        <time>2021-11-14T08:27:52.000Z</time>
      </trkpt>
      <trkpt lat="43.37742" lon="5.45054">
        <ele>310.18</ele>
        <time>2021-11-14T08:28:08.000Z</time>
      </trkpt>
      <trkpt lat="43.37751" lon="5.45078">
        <ele>311.96</ele>
        <time>2021-11-14T08:28:21.000Z</time>
      </trkpt>
      <trkpt lat="43.3776" lon="5.451">
        <ele>312.83</ele>
        <time>2021-11-14T08:28:34.000Z</time>
      </trkpt>
      <trkpt lat="43.37755" lon="5.45124">
        <ele>313.7</ele>
        <time>2021-11-14T08:28:46.000Z</time>
      </trkpt>
      <trkpt lat="43.37739" lon="5.45135">
        <ele>315.23</ele>
        <time>2021-11-14T08:29:02.000Z</time>
      </trkpt>
      <trkpt lat="43.37723" lon="5.45125">
        <ele>316.38</ele>
        <time>2021-11-14T08:33:10.000Z</time>
      </trkpt>
      <trkpt lat="43.37703" lon="5.45116">
        <ele>315.53</ele>
        <time>2021-11-14T08:33:58.000Z</time>
      </trkpt>
      <trkpt lat="43.37688" lon="5.45101">
        <ele>314.65</ele>
        <time>2021-11-14T08:34:04.000Z</time>
      </trkpt>
      <trkpt lat="43.37671" lon="5.45083">
        <ele>314.51</ele>
        <time>2021-11-14T08:34:10.000Z</time>
      </trkpt>
      <trkpt lat="43.37663" lon="5.45058">
        <ele>315.81</ele>
        <time>2021-11-14T08:34:18.000Z</time>
      </trkpt>
      <trkpt lat="43.37653" lon="5.45037">
        <ele>316.41</ele>
        <time>2021-11-14T08:34:25.000Z</time>
      </trkpt>
      <trkpt lat="43.37637" lon="5.45022">
        <ele>317.79</ele>
        <time>2021-11-14T08:34:32.000Z</time>
      </trkpt>
      <trkpt lat="43.3762" lon="5.45015">
        <ele>319.21</ele>
        <time>2021-11-14T08:34:40.000Z</time>
      </trkpt>
      <trkpt lat="43.37606" lon="5.45032">
        <ele>320.35</ele>
        <time>2021-11-14T08:34:49.000Z</time>
      </trkpt>
      <trkpt lat="43.3759" lon="5.45051">
        <ele>322.11</ele>
        <time>2021-11-14T08:34:57.000Z</time>
      </trkpt>
      <trkpt lat="43.37577" lon="5.45068">
        <ele>323.18</ele>
        <time>2021-11-14T08:35:05.000Z</time>
      </trkpt>
      <trkpt lat="43.37567" lon="5.45092">
        <ele>324.67</ele>
        <time>2021-11-14T08:35:14.000Z</time>
      </trkpt>
      <trkpt lat="43.37561" lon="5.45117">
        <ele>324.45</ele>
        <time>2021-11-14T08:35:23.000Z</time>
      </trkpt>
      <trkpt lat="43.3757" lon="5.45141">
        <ele>324.72</ele>
        <time>2021-11-14T08:35:33.000Z</time>
      </trkpt>
      <trkpt lat="43.37585" lon="5.45156">
        <ele>325.64</ele>
        <time>2021-11-14T08:35:41.000Z</time>
      </trkpt>
      <trkpt lat="43.37596" lon="5.45177">
        <ele>326.72</ele>
        <time>2021-11-14T08:35:49.000Z</time>
      </trkpt>
      <trkpt lat="43.37598" lon="5.45205">
        <ele>327.85</ele>
        <time>2021-11-14T08:35:57.000Z</time>
      </trkpt>
      <trkpt lat="43.37591" lon="5.45228">
        <ele>329.84</ele>
        <time>2021-11-14T08:36:06.000Z</time>
      </trkpt>
      <trkpt lat="43.3758" lon="5.45249">
        <ele>329.69</ele>
        <time>2021-11-14T08:36:14.000Z</time>
      </trkpt>
      <trkpt lat="43.37567" lon="5.4527">
        <ele>329.71</ele>
        <time>2021-11-14T08:36:21.000Z</time>
      </trkpt>
      <trkpt lat="43.37553" lon="5.45291">
        <ele>328.87</ele>
        <time>2021-11-14T08:36:28.000Z</time>
      </trkpt>
      <trkpt lat="43.37535" lon="5.45306">
        <ele>327.79</ele>
        <time>2021-11-14T08:36:33.000Z</time>
      </trkpt>
      <trkpt lat="43.3752" lon="5.45318">
        <ele>326.11</ele>
        <time>2021-11-14T08:36:38.000Z</time>
      </trkpt>
      <trkpt lat="43.375" lon="5.45329">
        <ele>324.73</ele>
        <time>2021-11-14T08:36:44.000Z</time>
      </trkpt>
      <trkpt lat="43.37483" lon="5.45335">
        <ele>322.64</ele>
        <time>2021-11-14T08:36:49.000Z</time>
      </trkpt>
      <trkpt lat="43.37464" lon="5.45335">
        <ele>319.68</ele>
        <time>2021-11-14T08:36:55.000Z</time>
      </trkpt>
      <trkpt lat="43.37446" lon="5.45335">
        <ele>316.95</ele>
        <time>2021-11-14T08:37:01.000Z</time>
      </trkpt>
      <trkpt lat="43.37426" lon="5.45334">
        <ele>315.3</ele>
        <time>2021-11-14T08:37:06.000Z</time>
      </trkpt>
      <trkpt lat="43.37407" lon="5.45328">
        <ele>314.25</ele>
        <time>2021-11-14T08:37:12.000Z</time>
      </trkpt>
      <trkpt lat="43.37421" lon="5.45347">
        <ele>313.11</ele>
        <time>2021-11-14T08:37:20.000Z</time>
      </trkpt>
      <trkpt lat="43.3744" lon="5.4536">
        <ele>311.17</ele>
        <time>2021-11-14T08:37:26.000Z</time>
      </trkpt>
      <trkpt lat="43.37459" lon="5.4537">
        <ele>308.99</ele>
        <time>2021-11-14T08:37:30.000Z</time>
      </trkpt>
      <trkpt lat="43.37477" lon="5.45381">
        <ele>307.59</ele>
        <time>2021-11-14T08:37:33.000Z</time>
      </trkpt>
      <trkpt lat="43.37495" lon="5.45389">
        <ele>309.77</ele>
        <time>2021-11-14T08:37:40.000Z</time>
      </trkpt>
      <trkpt lat="43.37514" lon="5.45382">
        <ele>311.16</ele>
        <time>2021-11-14T08:37:48.000Z</time>
      </trkpt>
      <trkpt lat="43.37533" lon="5.45373">
        <ele>311.6</ele>
        <time>2021-11-14T08:37:55.000Z</time>
      </trkpt>
      <trkpt lat="43.37551" lon="5.45362">
        <ele>311.83</ele>
        <time>2021-11-14T08:38:03.000Z</time>
      </trkpt>
      <trkpt lat="43.37567" lon="5.45352">
        <ele>312.91</ele>
        <time>2021-11-14T08:38:11.000Z</time>
      </trkpt>
      <trkpt lat="43.37585" lon="5.45347">
        <ele>313.39</ele>
        <time>2021-11-14T08:38:17.000Z</time>
      </trkpt>
      <trkpt lat="43.37605" lon="5.4535">
        <ele>313.1</ele>
        <time>2021-11-14T08:38:23.000Z</time>
      </trkpt>
      <trkpt lat="43.37624" lon="5.45349">
        <ele>314.1</ele>
        <time>2021-11-14T08:38:31.000Z</time>
      </trkpt>
      <trkpt lat="43.37645" lon="5.45351">
        <ele>312.82</ele>
        <time>2021-11-14T08:38:36.000Z</time>
      </trkpt>
      <trkpt lat="43.37665" lon="5.45355">
        <ele>312.74</ele>
        <time>2021-11-14T08:38:41.000Z</time>
      </trkpt>
      <trkpt lat="43.37685" lon="5.45362">
        <ele>312.08</ele>
        <time>2021-11-14T08:38:46.000Z</time>
      </trkpt>
      <trkpt lat="43.37703" lon="5.45371">
        <ele>312.33</ele>
        <time>2021-11-14T08:38:53.000Z</time>
      </trkpt>
      <trkpt lat="43.37721" lon="5.45377">
        <ele>312.9</ele>
        <time>2021-11-14T08:39:00.000Z</time>
      </trkpt>
      <trkpt lat="43.37704" lon="5.45386">
        <ele>307.06</ele>
        <time>2021-11-14T08:39:25.000Z</time>
      </trkpt>
      <trkpt lat="43.37685" lon="5.45393">
        <ele>301.97</ele>
        <time>2021-11-14T08:39:32.000Z</time>
      </trkpt>
      <trkpt lat="43.3769" lon="5.45418">
        <ele>297.6</ele>
        <time>2021-11-14T08:39:54.000Z</time>
      </trkpt>
      <trkpt lat="43.37708" lon="5.45419">
        <ele>298.48</ele>
        <time>2021-11-14T08:40:05.000Z</time>
      </trkpt>
      <trkpt lat="43.37725" lon="5.45428">
        <ele>298.12</ele>
        <time>2021-11-14T08:40:17.000Z</time>
      </trkpt>
      <trkpt lat="43.37742" lon="5.45417">
        <ele>298.87</ele>
        <time>2021-11-14T08:40:31.000Z</time>
      </trkpt>
      <trkpt lat="43.37754" lon="5.45398">
        <ele>300.7</ele>
        <time>2021-11-14T08:40:42.000Z</time>
      </trkpt>
      <trkpt lat="43.37771" lon="5.45385">
        <ele>302.27</ele>
        <time>2021-11-14T08:40:53.000Z</time>
      </trkpt>
      <trkpt lat="43.37784" lon="5.45368">
        <ele>302.32</ele>
        <time>2021-11-14T08:41:01.000Z</time>
      </trkpt>
      <trkpt lat="43.378" lon="5.45356">
        <ele>304.6</ele>
        <time>2021-11-14T08:41:12.000Z</time>
      </trkpt>
      <trkpt lat="43.37817" lon="5.45346">
        <ele>305.72</ele>
        <time>2021-11-14T08:41:47.000Z</time>
      </trkpt>
      <trkpt lat="43.37833" lon="5.45336">
        <ele>307.89</ele>
        <time>2021-11-14T08:43:57.000Z</time>
      </trkpt>
      <trkpt lat="43.37853" lon="5.45331">
        <ele>308.03</ele>
        <time>2021-11-14T08:44:05.000Z</time>
      </trkpt>
      <trkpt lat="43.37871" lon="5.45323">
        <ele>308.68</ele>
        <time>2021-11-14T08:44:12.000Z</time>
      </trkpt>
      <trkpt lat="43.37889" lon="5.45314">
        <ele>309.24</ele>
        <time>2021-11-14T08:44:20.000Z</time>
      </trkpt>
      <trkpt lat="43.37907" lon="5.45316">
        <ele>310.6</ele>
        <time>2021-11-14T08:44:29.000Z</time>
      </trkpt>
      <trkpt lat="43.37925" lon="5.45315">
        <ele>311.18</ele>
        <time>2021-11-14T08:44:38.000Z</time>
      </trkpt>
      <trkpt lat="43.37917" lon="5.4529">
        <ele>313.28</ele>
        <time>2021-11-14T08:44:50.000Z</time>
      </trkpt>
      <trkpt lat="43.379" lon="5.45279">
        <ele>314.86</ele>
        <time>2021-11-14T08:45:01.000Z</time>
      </trkpt>
      <trkpt lat="43.37883" lon="5.45267">
        <ele>318.13</ele>
        <time>2021-11-14T08:45:13.000Z</time>
      </trkpt>
      <trkpt lat="43.37866" lon="5.45258">
        <ele>320.35</ele>
        <time>2021-11-14T08:45:24.000Z</time>
      </trkpt>
      <trkpt lat="43.37848" lon="5.45248">
        <ele>322.74</ele>
        <time>2021-11-14T08:45:38.000Z</time>
      </trkpt>
      <trkpt lat="43.37829" lon="5.45244">
        <ele>325.85</ele>
        <time>2021-11-14T08:45:52.000Z</time>
      </trkpt>
      <trkpt lat="43.37811" lon="5.45247">
        <ele>328.99</ele>
        <time>2021-11-14T08:46:05.000Z</time>
      </trkpt>
      <trkpt lat="43.37792" lon="5.4525">
        <ele>332.15</ele>
        <time>2021-11-14T08:46:20.000Z</time>
      </trkpt>
      <trkpt lat="43.37772" lon="5.45249">
        <ele>334.56</ele>
        <time>2021-11-14T08:46:31.000Z</time>
      </trkpt>
      <trkpt lat="43.3777" lon="5.45224">
        <ele>336.71</ele>
        <time>2021-11-14T08:46:51.000Z</time>
      </trkpt>
      <trkpt lat="43.37788" lon="5.45224">
        <ele>338.26</ele>
        <time>2021-11-14T08:47:10.000Z</time>
      </trkpt>
      <trkpt lat="43.37807" lon="5.45223">
        <ele>337.93</ele>
        <time>2021-11-14T08:47:28.000Z</time>
      </trkpt>
      <trkpt lat="43.37825" lon="5.45213">
        <ele>338.4</ele>
        <time>2021-11-14T08:47:46.000Z</time>
      </trkpt>
      <trkpt lat="43.37843" lon="5.45208">
        <ele>339.01</ele>
        <time>2021-11-14T08:47:55.000Z</time>
      </trkpt>
      <trkpt lat="43.37862" lon="5.45207">
        <ele>338.68</ele>
        <time>2021-11-14T08:48:03.000Z</time>
      </trkpt>
      <trkpt lat="43.37882" lon="5.45216">
        <ele>339.12</ele>
        <time>2021-11-14T08:48:10.000Z</time>
      </trkpt>
      <trkpt lat="43.37902" lon="5.45225">
        <ele>339.44</ele>
        <time>2021-11-14T08:48:16.000Z</time>
      </trkpt>
      <trkpt lat="43.37921" lon="5.45239">
        <ele>339.7</ele>
        <time>2021-11-14T08:48:22.000Z</time>
      </trkpt>
      <trkpt lat="43.37938" lon="5.4525">
        <ele>339.45</ele>
        <time>2021-11-14T08:48:27.000Z</time>
      </trkpt>
      <trkpt lat="43.37958" lon="5.45259">
        <ele>339.23</ele>
        <time>2021-11-14T08:48:32.000Z</time>
      </trkpt>
      <trkpt lat="43.37976" lon="5.45269">
        <ele>339.28</ele>
        <time>2021-11-14T08:48:37.000Z</time>
      </trkpt>
      <trkpt lat="43.37989" lon="5.45287">
        <ele>339.94</ele>
        <time>2021-11-14T08:48:43.000Z</time>
      </trkpt>
      <trkpt lat="43.37999" lon="5.45313">
        <ele>340.01</ele>
        <time>2021-11-14T08:48:49.000Z</time>
      </trkpt>
      <trkpt lat="43.3801" lon="5.45334">
        <ele>340.35</ele>
        <time>2021-11-14T08:48:54.000Z</time>
      </trkpt>
      <trkpt lat="43.38022" lon="5.45354">
        <ele>340.71</ele>
        <time>2021-11-14T08:49:00.000Z</time>
      </trkpt>
      <trkpt lat="43.38036" lon="5.45371">
        <ele>340.45</ele>
        <time>2021-11-14T08:49:05.000Z</time>
      </trkpt>
      <trkpt lat="43.38044" lon="5.45393">
        <ele>340.49</ele>
        <time>2021-11-14T08:49:10.000Z</time>
      </trkpt>
      <trkpt lat="43.38057" lon="5.45414">
        <ele>341.04</ele>
        <time>2021-11-14T08:49:16.000Z</time>
      </trkpt>
      <trkpt lat="43.38071" lon="5.45435">
        <ele>340.95</ele>
        <time>2021-11-14T08:49:22.000Z</time>
      </trkpt>
      <trkpt lat="43.38085" lon="5.45457">
        <ele>340.78</ele>
        <time>2021-11-14T08:49:28.000Z</time>
      </trkpt>
      <trkpt lat="43.38102" lon="5.45464">
        <ele>340.4</ele>
        <time>2021-11-14T08:49:33.000Z</time>
      </trkpt>
      <trkpt lat="43.38122" lon="5.45461">
        <ele>340</ele>
        <time>2021-11-14T08:49:38.000Z</time>
      </trkpt>
      <trkpt lat="43.38143" lon="5.45454">
        <ele>340.02</ele>
        <time>2021-11-14T08:49:44.000Z</time>
      </trkpt>
      <trkpt lat="43.38163" lon="5.45446">
        <ele>339.8</ele>
        <time>2021-11-14T08:49:50.000Z</time>
      </trkpt>
      <trkpt lat="43.38181" lon="5.45436">
        <ele>339.49</ele>
        <time>2021-11-14T08:49:55.000Z</time>
      </trkpt>
      <trkpt lat="43.38195" lon="5.45421">
        <ele>339.13</ele>
        <time>2021-11-14T08:50:00.000Z</time>
      </trkpt>
      <trkpt lat="43.38212" lon="5.45405">
        <ele>338.96</ele>
        <time>2021-11-14T08:50:06.000Z</time>
      </trkpt>
      <trkpt lat="43.3823" lon="5.45391">
        <ele>338.72</ele>
        <time>2021-11-14T08:50:11.000Z</time>
      </trkpt>
      <trkpt lat="43.38247" lon="5.45374">
        <ele>338.56</ele>
        <time>2021-11-14T08:50:17.000Z</time>
      </trkpt>
      <trkpt lat="43.3826" lon="5.45355">
        <ele>338.49</ele>
        <time>2021-11-14T08:50:23.000Z</time>
      </trkpt>
      <trkpt lat="43.38278" lon="5.45355">
        <ele>339.53</ele>
        <time>2021-11-14T08:50:35.000Z</time>
      </trkpt>
      <trkpt lat="43.38291" lon="5.45335">
        <ele>341.17</ele>
        <time>2021-11-14T08:50:47.000Z</time>
      </trkpt>
      <trkpt lat="43.38307" lon="5.45321">
        <ele>342</ele>
        <time>2021-11-14T08:50:56.000Z</time>
      </trkpt>
      <trkpt lat="43.38325" lon="5.45311">
        <ele>343.43</ele>
        <time>2021-11-14T08:51:06.000Z</time>
      </trkpt>
      <trkpt lat="43.38343" lon="5.45302">
        <ele>344.97</ele>
        <time>2021-11-14T08:51:17.000Z</time>
      </trkpt>
      <trkpt lat="43.38361" lon="5.45302">
        <ele>346.43</ele>
        <time>2021-11-14T08:51:26.000Z</time>
      </trkpt>
      <trkpt lat="43.38377" lon="5.45288">
        <ele>347.4</ele>
        <time>2021-11-14T08:51:36.000Z</time>
      </trkpt>
      <trkpt lat="43.38391" lon="5.4527">
        <ele>347.91</ele>
        <time>2021-11-14T08:51:46.000Z</time>
      </trkpt>
      <trkpt lat="43.38407" lon="5.45256">
        <ele>348.18</ele>
        <time>2021-11-14T08:51:54.000Z</time>
      </trkpt>
      <trkpt lat="43.38423" lon="5.45245">
        <ele>348.47</ele>
        <time>2021-11-14T08:52:03.000Z</time>
      </trkpt>
      <trkpt lat="43.3844" lon="5.45238">
        <ele>349.52</ele>
        <time>2021-11-14T08:52:13.000Z</time>
      </trkpt>
      <trkpt lat="43.38458" lon="5.4523">
        <ele>350.48</ele>
        <time>2021-11-14T08:52:23.000Z</time>
      </trkpt>
      <trkpt lat="43.38476" lon="5.45221">
        <ele>352.15</ele>
        <time>2021-11-14T08:52:35.000Z</time>
      </trkpt>
      <trkpt lat="43.38495" lon="5.45224">
        <ele>354.12</ele>
        <time>2021-11-14T08:52:46.000Z</time>
      </trkpt>
      <trkpt lat="43.38513" lon="5.45219">
        <ele>354.73</ele>
        <time>2021-11-14T08:52:56.000Z</time>
      </trkpt>
      <trkpt lat="43.38532" lon="5.45213">
        <ele>355.54</ele>
        <time>2021-11-14T08:53:05.000Z</time>
      </trkpt>
      <trkpt lat="43.38549" lon="5.45204">
        <ele>356.26</ele>
        <time>2021-11-14T08:53:15.000Z</time>
      </trkpt>
      <trkpt lat="43.38567" lon="5.45194">
        <ele>357.56</ele>
        <time>2021-11-14T08:53:25.000Z</time>
      </trkpt>
      <trkpt lat="43.38585" lon="5.45188">
        <ele>359.06</ele>
        <time>2021-11-14T08:53:34.000Z</time>
      </trkpt>
      <trkpt lat="43.38603" lon="5.45177">
        <ele>360.2</ele>
        <time>2021-11-14T08:53:45.000Z</time>
      </trkpt>
      <trkpt lat="43.38618" lon="5.45162">
        <ele>361.04</ele>
        <time>2021-11-14T08:53:55.000Z</time>
      </trkpt>
      <trkpt lat="43.38635" lon="5.45149">
        <ele>362.24</ele>
        <time>2021-11-14T08:54:05.000Z</time>
      </trkpt>
      <trkpt lat="43.38654" lon="5.45144">
        <ele>363.82</ele>
        <time>2021-11-14T08:54:16.000Z</time>
      </trkpt>
      <trkpt lat="43.38672" lon="5.45133">
        <ele>364.11</ele>
        <time>2021-11-14T08:54:27.000Z</time>
      </trkpt>
      <trkpt lat="43.3869" lon="5.4513">
        <ele>365.38</ele>
        <time>2021-11-14T08:54:36.000Z</time>
      </trkpt>
      <trkpt lat="43.38709" lon="5.45123">
        <ele>367.23</ele>
        <time>2021-11-14T08:54:47.000Z</time>
      </trkpt>
      <trkpt lat="43.38728" lon="5.45119">
        <ele>368.87</ele>
        <time>2021-11-14T08:54:59.000Z</time>
      </trkpt>
      <trkpt lat="43.38746" lon="5.45112">
        <ele>370.2</ele>
        <time>2021-11-14T08:55:09.000Z</time>
      </trkpt>
      <trkpt lat="43.38763" lon="5.45104">
        <ele>371.11</ele>
        <time>2021-11-14T08:55:19.000Z</time>
      </trkpt>
      <trkpt lat="43.38781" lon="5.45093">
        <ele>372.26</ele>
        <time>2021-11-14T08:55:31.000Z</time>
      </trkpt>
      <trkpt lat="43.38797" lon="5.4508">
        <ele>373.02</ele>
        <time>2021-11-14T08:55:42.000Z</time>
      </trkpt>
      <trkpt lat="43.38813" lon="5.45068">
        <ele>373.23</ele>
        <time>2021-11-14T08:55:50.000Z</time>
      </trkpt>
      <trkpt lat="43.38828" lon="5.4505">
        <ele>373.92</ele>
        <time>2021-11-14T08:56:00.000Z</time>
      </trkpt>
      <trkpt lat="43.3884" lon="5.4503">
        <ele>375.04</ele>
        <time>2021-11-14T08:56:10.000Z</time>
      </trkpt>
      <trkpt lat="43.38855" lon="5.45014">
        <ele>376.33</ele>
        <time>2021-11-14T08:56:20.000Z</time>
      </trkpt>
      <trkpt lat="43.38871" lon="5.45002">
        <ele>377.94</ele>
        <time>2021-11-14T08:56:32.000Z</time>
      </trkpt>
      <trkpt lat="43.38888" lon="5.44992">
        <ele>378.72</ele>
        <time>2021-11-14T08:56:45.000Z</time>
      </trkpt>
      <trkpt lat="43.38902" lon="5.44974">
        <ele>379.66</ele>
        <time>2021-11-14T08:56:57.000Z</time>
      </trkpt>
      <trkpt lat="43.38916" lon="5.44955">
        <ele>380.8</ele>
        <time>2021-11-14T08:57:09.000Z</time>
      </trkpt>
      <trkpt lat="43.3893" lon="5.4494">
        <ele>382.79</ele>
        <time>2021-11-14T08:57:20.000Z</time>
      </trkpt>
      <trkpt lat="43.38945" lon="5.44923">
        <ele>386.11</ele>
        <time>2021-11-14T08:57:32.000Z</time>
      </trkpt>
      <trkpt lat="43.38958" lon="5.44905">
        <ele>388.55</ele>
        <time>2021-11-14T08:57:53.000Z</time>
      </trkpt>
      <trkpt lat="43.38973" lon="5.44889">
        <ele>391.23</ele>
        <time>2021-11-14T08:58:22.000Z</time>
      </trkpt>
      <trkpt lat="43.38987" lon="5.44873">
        <ele>393.49</ele>
        <time>2021-11-14T08:58:35.000Z</time>
      </trkpt>
      <trkpt lat="43.39003" lon="5.44861">
        <ele>394.25</ele>
        <time>2021-11-14T08:58:45.000Z</time>
      </trkpt>
      <trkpt lat="43.39021" lon="5.44852">
        <ele>394.62</ele>
        <time>2021-11-14T08:58:55.000Z</time>
      </trkpt>
      <trkpt lat="43.39039" lon="5.44845">
        <ele>394.98</ele>
        <time>2021-11-14T08:59:06.000Z</time>
      </trkpt>
      <trkpt lat="43.39058" lon="5.44837">
        <ele>396.3</ele>
        <time>2021-11-14T09:05:29.000Z</time>
      </trkpt>
      <trkpt lat="43.39076" lon="5.44831">
        <ele>398.71</ele>
        <time>2021-11-14T09:05:39.000Z</time>
      </trkpt>
      <trkpt lat="43.39095" lon="5.44824">
        <ele>402.01</ele>
        <time>2021-11-14T09:05:50.000Z</time>
      </trkpt>
      <trkpt lat="43.39076" lon="5.44816">
        <ele>402.86</ele>
        <time>2021-11-14T09:06:03.000Z</time>
      </trkpt>
      <trkpt lat="43.39056" lon="5.44816">
        <ele>403.23</ele>
        <time>2021-11-14T09:06:11.000Z</time>
      </trkpt>
      <trkpt lat="43.3904" lon="5.44801">
        <ele>403.41</ele>
        <time>2021-11-14T09:06:19.000Z</time>
      </trkpt>
      <trkpt lat="43.39024" lon="5.44817">
        <ele>403.69</ele>
        <time>2021-11-14T09:06:26.000Z</time>
      </trkpt>
      <trkpt lat="43.39012" lon="5.44835">
        <ele>404.11</ele>
        <time>2021-11-14T09:06:32.000Z</time>
      </trkpt>
      <trkpt lat="43.38993" lon="5.44841">
        <ele>404.41</ele>
        <time>2021-11-14T09:06:38.000Z</time>
      </trkpt>
      <trkpt lat="43.38975" lon="5.44848">
        <ele>405.1</ele>
        <time>2021-11-14T09:06:44.000Z</time>
      </trkpt>
      <trkpt lat="43.38956" lon="5.44855">
        <ele>405.28</ele>
        <time>2021-11-14T09:06:50.000Z</time>
      </trkpt>
      <trkpt lat="43.38938" lon="5.44859">
        <ele>405.56</ele>
        <time>2021-11-14T09:06:55.000Z</time>
      </trkpt>
      <trkpt lat="43.3892" lon="5.44871">
        <ele>405.97</ele>
        <time>2021-11-14T09:07:01.000Z</time>
      </trkpt>
      <trkpt lat="43.38904" lon="5.44884">
        <ele>406.85</ele>
        <time>2021-11-14T09:07:06.000Z</time>
      </trkpt>
      <trkpt lat="43.38883" lon="5.44886">
        <ele>406.97</ele>
        <time>2021-11-14T09:07:12.000Z</time>
      </trkpt>
      <trkpt lat="43.38862" lon="5.44886">
        <ele>406.83</ele>
        <time>2021-11-14T09:07:18.000Z</time>
      </trkpt>
      <trkpt lat="43.38857" lon="5.44913">
        <ele>408.05</ele>
        <time>2021-11-14T09:07:24.000Z</time>
      </trkpt>
      <trkpt lat="43.38843" lon="5.44932">
        <ele>408.54</ele>
        <time>2021-11-14T09:07:31.000Z</time>
      </trkpt>
      <trkpt lat="43.38826" lon="5.44946">
        <ele>409.35</ele>
        <time>2021-11-14T09:07:37.000Z</time>
      </trkpt>
      <trkpt lat="43.38807" lon="5.44956">
        <ele>409.84</ele>
        <time>2021-11-14T09:07:43.000Z</time>
      </trkpt>
      <trkpt lat="43.38787" lon="5.44965">
        <ele>410.46</ele>
        <time>2021-11-14T09:07:49.000Z</time>
      </trkpt>
      <trkpt lat="43.38769" lon="5.44978">
        <ele>411.11</ele>
        <time>2021-11-14T09:07:55.000Z</time>
      </trkpt>
      <trkpt lat="43.38752" lon="5.44986">
        <ele>411.46</ele>
        <time>2021-11-14T09:08:01.000Z</time>
      </trkpt>
      <trkpt lat="43.38733" lon="5.44992">
        <ele>412.11</ele>
        <time>2021-11-14T09:08:07.000Z</time>
      </trkpt>
      <trkpt lat="43.38715" lon="5.45">
        <ele>412.99</ele>
        <time>2021-11-14T09:08:13.000Z</time>
      </trkpt>
      <trkpt lat="43.38694" lon="5.45006">
        <ele>413.05</ele>
        <time>2021-11-14T09:08:19.000Z</time>
      </trkpt>
      <trkpt lat="43.38674" lon="5.45009">
        <ele>413.65</ele>
        <time>2021-11-14T09:08:25.000Z</time>
      </trkpt>
      <trkpt lat="43.38652" lon="5.45009">
        <ele>413.62</ele>
        <time>2021-11-14T09:08:31.000Z</time>
      </trkpt>
      <trkpt lat="43.38632" lon="5.4501">
        <ele>413.99</ele>
        <time>2021-11-14T09:08:37.000Z</time>
      </trkpt>
      <trkpt lat="43.38613" lon="5.45011">
        <ele>414.42</ele>
        <time>2021-11-14T09:08:42.000Z</time>
      </trkpt>
      <trkpt lat="43.38595" lon="5.45012">
        <ele>414.36</ele>
        <time>2021-11-14T09:08:47.000Z</time>
      </trkpt>
      <trkpt lat="43.38577" lon="5.45018">
        <ele>414.8</ele>
        <time>2021-11-14T09:08:52.000Z</time>
      </trkpt>
      <trkpt lat="43.38556" lon="5.45025">
        <ele>415.33</ele>
        <time>2021-11-14T09:08:58.000Z</time>
      </trkpt>
      <trkpt lat="43.38535" lon="5.45028">
        <ele>415.88</ele>
        <time>2021-11-14T09:09:04.000Z</time>
      </trkpt>
      <trkpt lat="43.38515" lon="5.45024">
        <ele>416.44</ele>
        <time>2021-11-14T09:09:10.000Z</time>
      </trkpt>
      <trkpt lat="43.38497" lon="5.45015">
        <ele>417.06</ele>
        <time>2021-11-14T09:09:15.000Z</time>
      </trkpt>
      <trkpt lat="43.38477" lon="5.4501">
        <ele>417.17</ele>
        <time>2021-11-14T09:09:21.000Z</time>
      </trkpt>
      <trkpt lat="43.38459" lon="5.45006">
        <ele>417.15</ele>
        <time>2021-11-14T09:09:26.000Z</time>
      </trkpt>
      <trkpt lat="43.38439" lon="5.45005">
        <ele>417.22</ele>
        <time>2021-11-14T09:09:32.000Z</time>
      </trkpt>
      <trkpt lat="43.38428" lon="5.44984">
        <ele>416.63</ele>
        <time>2021-11-14T09:09:40.000Z</time>
      </trkpt>
      <trkpt lat="43.38442" lon="5.44963">
        <ele>415.78</ele>
        <time>2021-11-14T09:09:44.000Z</time>
      </trkpt>
      <trkpt lat="43.38452" lon="5.4494">
        <ele>414.94</ele>
        <time>2021-11-14T09:09:48.000Z</time>
      </trkpt>
      <trkpt lat="43.38461" lon="5.44913">
        <ele>413.8</ele>
        <time>2021-11-14T09:09:52.000Z</time>
      </trkpt>
      <trkpt lat="43.38464" lon="5.44883">
        <ele>413.25</ele>
        <time>2021-11-14T09:09:56.000Z</time>
      </trkpt>
      <trkpt lat="43.38454" lon="5.44853">
        <ele>412.83</ele>
        <time>2021-11-14T09:10:00.000Z</time>
      </trkpt>
      <trkpt lat="43.38444" lon="5.44833">
        <ele>412.32</ele>
        <time>2021-11-14T09:10:03.000Z</time>
      </trkpt>
      <trkpt lat="43.38434" lon="5.44803">
        <ele>410.62</ele>
        <time>2021-11-14T09:10:07.000Z</time>
      </trkpt>
      <trkpt lat="43.38433" lon="5.44775">
        <ele>409.41</ele>
        <time>2021-11-14T09:10:10.000Z</time>
      </trkpt>
      <trkpt lat="43.38435" lon="5.44747">
        <ele>408.37</ele>
        <time>2021-11-14T09:10:13.000Z</time>
      </trkpt>
      <trkpt lat="43.38445" lon="5.4472">
        <ele>407.93</ele>
        <time>2021-11-14T09:10:17.000Z</time>
      </trkpt>
      <trkpt lat="43.38454" lon="5.44696">
        <ele>408.19</ele>
        <time>2021-11-14T09:10:21.000Z</time>
      </trkpt>
      <trkpt lat="43.38465" lon="5.44673">
        <ele>408.8</ele>
        <time>2021-11-14T09:10:26.000Z</time>
      </trkpt>
      <trkpt lat="43.38479" lon="5.44652">
        <ele>409.48</ele>
        <time>2021-11-14T09:10:32.000Z</time>
      </trkpt>
      <trkpt lat="43.38492" lon="5.44632">
        <ele>410.23</ele>
        <time>2021-11-14T09:10:38.000Z</time>
      </trkpt>
      <trkpt lat="43.38506" lon="5.44611">
        <ele>410.55</ele>
        <time>2021-11-14T09:10:45.000Z</time>
      </trkpt>
      <trkpt lat="43.38519" lon="5.44594">
        <ele>410.68</ele>
        <time>2021-11-14T09:10:51.000Z</time>
      </trkpt>
      <trkpt lat="43.38533" lon="5.44575">
        <ele>410.72</ele>
        <time>2021-11-14T09:10:57.000Z</time>
      </trkpt>
      <trkpt lat="43.38535" lon="5.44548">
        <ele>410.38</ele>
        <time>2021-11-14T09:11:04.000Z</time>
      </trkpt>
      <trkpt lat="43.38514" lon="5.44552">
        <ele>410.16</ele>
        <time>2021-11-14T09:11:09.000Z</time>
      </trkpt>
      <trkpt lat="43.38494" lon="5.44559">
        <ele>409.94</ele>
        <time>2021-11-14T09:11:14.000Z</time>
      </trkpt>
      <trkpt lat="43.38474" lon="5.44567">
        <ele>409.92</ele>
        <time>2021-11-14T09:11:19.000Z</time>
      </trkpt>
      <trkpt lat="43.38452" lon="5.44572">
        <ele>410.08</ele>
        <time>2021-11-14T09:11:24.000Z</time>
      </trkpt>
      <trkpt lat="43.38434" lon="5.44575">
        <ele>409.89</ele>
        <time>2021-11-14T09:11:28.000Z</time>
      </trkpt>
      <trkpt lat="43.38412" lon="5.44582">
        <ele>409.8</ele>
        <time>2021-11-14T09:11:33.000Z</time>
      </trkpt>
      <trkpt lat="43.38395" lon="5.44588">
        <ele>409.63</ele>
        <time>2021-11-14T09:11:38.000Z</time>
      </trkpt>
      <trkpt lat="43.38377" lon="5.44593">
        <ele>409.25</ele>
        <time>2021-11-14T09:11:42.000Z</time>
      </trkpt>
      <trkpt lat="43.38358" lon="5.44588">
        <ele>408.85</ele>
        <time>2021-11-14T09:11:46.000Z</time>
      </trkpt>
      <trkpt lat="43.38352" lon="5.44559">
        <ele>408.7</ele>
        <time>2021-11-14T09:11:52.000Z</time>
      </trkpt>
      <trkpt lat="43.38356" lon="5.4453">
        <ele>408.55</ele>
        <time>2021-11-14T09:11:57.000Z</time>
      </trkpt>
      <trkpt lat="43.38356" lon="5.44505">
        <ele>408.37</ele>
        <time>2021-11-14T09:12:01.000Z</time>
      </trkpt>
      <trkpt lat="43.38351" lon="5.44476">
        <ele>408.13</ele>
        <time>2021-11-14T09:12:06.000Z</time>
      </trkpt>
      <trkpt lat="43.38349" lon="5.44451">
        <ele>408.17</ele>
        <time>2021-11-14T09:12:10.000Z</time>
      </trkpt>
      <trkpt lat="43.38346" lon="5.44425">
        <ele>407.63</ele>
        <time>2021-11-14T09:12:15.000Z</time>
      </trkpt>
      <trkpt lat="43.38338" lon="5.44397">
        <ele>407.09</ele>
        <time>2021-11-14T09:12:20.000Z</time>
      </trkpt>
      <trkpt lat="43.38322" lon="5.44384">
        <ele>406.51</ele>
        <time>2021-11-14T09:12:24.000Z</time>
      </trkpt>
      <trkpt lat="43.38301" lon="5.44376">
        <ele>406.25</ele>
        <time>2021-11-14T09:12:29.000Z</time>
      </trkpt>
      <trkpt lat="43.38279" lon="5.44383">
        <ele>405.9</ele>
        <time>2021-11-14T09:12:34.000Z</time>
      </trkpt>
      <trkpt lat="43.38263" lon="5.44396">
        <ele>405.81</ele>
        <time>2021-11-14T09:12:38.000Z</time>
      </trkpt>
      <trkpt lat="43.3824" lon="5.444">
        <ele>405.75</ele>
        <time>2021-11-14T09:12:43.000Z</time>
      </trkpt>
      <trkpt lat="43.38218" lon="5.44396">
        <ele>405.46</ele>
        <time>2021-11-14T09:12:48.000Z</time>
      </trkpt>
      <trkpt lat="43.38206" lon="5.44378">
        <ele>405.15</ele>
        <time>2021-11-14T09:12:52.000Z</time>
      </trkpt>
      <trkpt lat="43.38197" lon="5.44356">
        <ele>405.11</ele>
        <time>2021-11-14T09:12:56.000Z</time>
      </trkpt>
      <trkpt lat="43.38192" lon="5.44326">
        <ele>404.42</ele>
        <time>2021-11-14T09:13:01.000Z</time>
      </trkpt>
      <trkpt lat="43.38194" lon="5.44301">
        <ele>404.02</ele>
        <time>2021-11-14T09:13:05.000Z</time>
      </trkpt>
      <trkpt lat="43.382" lon="5.44277">
        <ele>403.63</ele>
        <time>2021-11-14T09:13:09.000Z</time>
      </trkpt>
      <trkpt lat="43.38202" lon="5.4425">
        <ele>403</ele>
        <time>2021-11-14T09:13:13.000Z</time>
      </trkpt>
      <trkpt lat="43.38199" lon="5.44221">
        <ele>402.42</ele>
        <time>2021-11-14T09:13:17.000Z</time>
      </trkpt>
      <trkpt lat="43.3819" lon="5.44198">
        <ele>401.82</ele>
        <time>2021-11-14T09:13:21.000Z</time>
      </trkpt>
      <trkpt lat="43.38175" lon="5.44183">
        <ele>401.68</ele>
        <time>2021-11-14T09:13:25.000Z</time>
      </trkpt>
      <trkpt lat="43.38153" lon="5.44186">
        <ele>401.16</ele>
        <time>2021-11-14T09:13:30.000Z</time>
      </trkpt>
      <trkpt lat="43.38132" lon="5.4419">
        <ele>400.61</ele>
        <time>2021-11-14T09:13:36.000Z</time>
      </trkpt>
      <trkpt lat="43.38115" lon="5.4418">
        <ele>399.54</ele>
        <time>2021-11-14T09:14:18.000Z</time>
      </trkpt>
      <trkpt lat="43.38099" lon="5.44196">
        <ele>397.48</ele>
        <time>2021-11-14T09:14:25.000Z</time>
      </trkpt>
      <trkpt lat="43.38083" lon="5.44212">
        <ele>395.08</ele>
        <time>2021-11-14T09:14:30.000Z</time>
      </trkpt>
      <trkpt lat="43.38068" lon="5.4423">
        <ele>392.37</ele>
        <time>2021-11-14T09:14:36.000Z</time>
      </trkpt>
      <trkpt lat="43.38059" lon="5.44253">
        <ele>388.2</ele>
        <time>2021-11-14T09:14:42.000Z</time>
      </trkpt>
      <trkpt lat="43.38048" lon="5.44273">
        <ele>383.95</ele>
        <time>2021-11-14T09:14:49.000Z</time>
      </trkpt>
      <trkpt lat="43.38034" lon="5.4429">
        <ele>379.46</ele>
        <time>2021-11-14T09:14:56.000Z</time>
      </trkpt>
      <trkpt lat="43.38023" lon="5.44311">
        <ele>375.15</ele>
        <time>2021-11-14T09:15:04.000Z</time>
      </trkpt>
      <trkpt lat="43.38015" lon="5.44336">
        <ele>372.45</ele>
        <time>2021-11-14T09:15:11.000Z</time>
      </trkpt>
      <trkpt lat="43.38003" lon="5.44355">
        <ele>368.88</ele>
        <time>2021-11-14T09:15:18.000Z</time>
      </trkpt>
      <trkpt lat="43.37987" lon="5.44368">
        <ele>365.97</ele>
        <time>2021-11-14T09:15:25.000Z</time>
      </trkpt>
      <trkpt lat="43.37967" lon="5.44372">
        <ele>363.09</ele>
        <time>2021-11-14T09:15:32.000Z</time>
      </trkpt>
      <trkpt lat="43.37955" lon="5.44393">
        <ele>361.62</ele>
        <time>2021-11-14T09:15:43.000Z</time>
      </trkpt>
      <trkpt lat="43.37941" lon="5.44409">
        <ele>360.35</ele>
        <time>2021-11-14T09:15:53.000Z</time>
      </trkpt>
      <trkpt lat="43.37922" lon="5.44411">
        <ele>358.33</ele>
        <time>2021-11-14T09:16:06.000Z</time>
      </trkpt>
      <trkpt lat="43.37906" lon="5.44397">
        <ele>354.28</ele>
        <time>2021-11-14T09:16:21.000Z</time>
      </trkpt>
      <trkpt lat="43.37899" lon="5.44372">
        <ele>351.35</ele>
        <time>2021-11-14T09:16:29.000Z</time>
      </trkpt>
      <trkpt lat="43.37892" lon="5.44349">
        <ele>348.67</ele>
        <time>2021-11-14T09:16:36.000Z</time>
      </trkpt>
      <trkpt lat="43.37884" lon="5.44326">
        <ele>344.99</ele>
        <time>2021-11-14T09:16:45.000Z</time>
      </trkpt>
      <trkpt lat="43.37881" lon="5.44301">
        <ele>342</ele>
        <time>2021-11-14T09:16:53.000Z</time>
      </trkpt>
      <trkpt lat="43.37884" lon="5.44274">
        <ele>339.67</ele>
        <time>2021-11-14T09:17:01.000Z</time>
      </trkpt>
      <trkpt lat="43.37867" lon="5.44257">
        <ele>339.61</ele>
        <time>2021-11-14T09:17:07.000Z</time>
      </trkpt>
      <trkpt lat="43.37849" lon="5.44243">
        <ele>339.18</ele>
        <time>2021-11-14T09:17:14.000Z</time>
      </trkpt>
      <trkpt lat="43.37831" lon="5.44234">
        <ele>336.83</ele>
        <time>2021-11-14T09:17:22.000Z</time>
      </trkpt>
      <trkpt lat="43.37812" lon="5.4423">
        <ele>332.99</ele>
        <time>2021-11-14T09:17:29.000Z</time>
      </trkpt>
      <trkpt lat="43.37795" lon="5.44225">
        <ele>329.96</ele>
        <time>2021-11-14T09:17:37.000Z</time>
      </trkpt>
      <trkpt lat="43.37792" lon="5.44196">
        <ele>327.26</ele>
        <time>2021-11-14T09:17:45.000Z</time>
      </trkpt>
      <trkpt lat="43.37798" lon="5.44172">
        <ele>324.56</ele>
        <time>2021-11-14T09:17:52.000Z</time>
      </trkpt>
      <trkpt lat="43.37805" lon="5.44144">
        <ele>320.71</ele>
        <time>2021-11-14T09:18:00.000Z</time>
      </trkpt>
      <trkpt lat="43.37812" lon="5.4412">
        <ele>317.56</ele>
        <time>2021-11-14T09:18:06.000Z</time>
      </trkpt>
      <trkpt lat="43.3779" lon="5.44115">
        <ele>314.42</ele>
        <time>2021-11-14T09:18:12.000Z</time>
      </trkpt>
      <trkpt lat="43.37773" lon="5.44131">
        <ele>315.65</ele>
        <time>2021-11-14T09:18:18.000Z</time>
      </trkpt>
      <trkpt lat="43.3775" lon="5.44146">
        <ele>314.83</ele>
        <time>2021-11-14T09:18:23.000Z</time>
      </trkpt>
      <trkpt lat="43.3773" lon="5.44157">
        <ele>314.49</ele>
        <time>2021-11-14T09:18:27.000Z</time>
      </trkpt>
      <trkpt lat="43.37712" lon="5.4416">
        <ele>313.98</ele>
        <time>2021-11-14T09:18:33.000Z</time>
      </trkpt>
      <trkpt lat="43.37693" lon="5.44159">
        <ele>314.03</ele>
        <time>2021-11-14T09:18:38.000Z</time>
      </trkpt>
      <trkpt lat="43.37675" lon="5.44158">
        <ele>315.27</ele>
        <time>2021-11-14T09:18:44.000Z</time>
      </trkpt>
      <trkpt lat="43.37656" lon="5.44146">
        <ele>315.1</ele>
        <time>2021-11-14T09:18:49.000Z</time>
      </trkpt>
      <trkpt lat="43.37642" lon="5.44122">
        <ele>314.01</ele>
        <time>2021-11-14T09:18:53.000Z</time>
      </trkpt>
      <trkpt lat="43.37632" lon="5.44097">
        <ele>314.11</ele>
        <time>2021-11-14T09:18:58.000Z</time>
      </trkpt>
      <trkpt lat="43.37627" lon="5.4407">
        <ele>315.26</ele>
        <time>2021-11-14T09:19:04.000Z</time>
      </trkpt>
      <trkpt lat="43.3762" lon="5.44044">
        <ele>318.14</ele>
        <time>2021-11-14T09:19:12.000Z</time>
      </trkpt>
      <trkpt lat="43.37601" lon="5.44039">
        <ele>319.69</ele>
        <time>2021-11-14T09:19:21.000Z</time>
      </trkpt>
      <trkpt lat="43.37595" lon="5.44013">
        <ele>320.24</ele>
        <time>2021-11-14T09:19:30.000Z</time>
      </trkpt>
      <trkpt lat="43.37589" lon="5.43986">
        <ele>320.63</ele>
        <time>2021-11-14T09:19:38.000Z</time>
      </trkpt>
      <trkpt lat="43.37586" lon="5.4396">
        <ele>320.27</ele>
        <time>2021-11-14T09:19:45.000Z</time>
      </trkpt>
      <trkpt lat="43.37593" lon="5.43937">
        <ele>319.75</ele>
        <time>2021-11-14T09:19:51.000Z</time>
      </trkpt>
      <trkpt lat="43.37605" lon="5.43918">
        <ele>318.37</ele>
        <time>2021-11-14T09:19:56.000Z</time>
      </trkpt>
      <trkpt lat="43.37617" lon="5.43896">
        <ele>317.65</ele>
        <time>2021-11-14T09:20:01.000Z</time>
      </trkpt>
      <trkpt lat="43.37627" lon="5.43873">
        <ele>316.1</ele>
        <time>2021-11-14T09:20:08.000Z</time>
      </trkpt>
      <trkpt lat="43.37637" lon="5.4385">
        <ele>312.17</ele>
        <time>2021-11-14T09:20:17.000Z</time>
      </trkpt>
      <trkpt lat="43.37626" lon="5.43831">
        <ele>308.99</ele>
        <time>2021-11-14T09:20:27.000Z</time>
      </trkpt>
      <trkpt lat="43.37608" lon="5.43841">
        <ele>308.72</ele>
        <time>2021-11-14T09:20:33.000Z</time>
      </trkpt>
      <trkpt lat="43.3759" lon="5.43848">
        <ele>308.83</ele>
        <time>2021-11-14T09:20:38.000Z</time>
      </trkpt>
      <trkpt lat="43.37572" lon="5.43855">
        <ele>309.15</ele>
        <time>2021-11-14T09:20:44.000Z</time>
      </trkpt>
      <trkpt lat="43.37553" lon="5.43858">
        <ele>309.6</ele>
        <time>2021-11-14T09:20:50.000Z</time>
      </trkpt>
      <trkpt lat="43.37535" lon="5.43868">
        <ele>309.55</ele>
        <time>2021-11-14T09:20:55.000Z</time>
      </trkpt>
      <trkpt lat="43.37519" lon="5.4388">
        <ele>309.89</ele>
        <time>2021-11-14T09:21:00.000Z</time>
      </trkpt>
      <trkpt lat="43.37502" lon="5.43894">
        <ele>309.91</ele>
        <time>2021-11-14T09:21:06.000Z</time>
      </trkpt>
      <trkpt lat="43.37484" lon="5.43911">
        <ele>310.21</ele>
        <time>2021-11-14T09:21:12.000Z</time>
      </trkpt>
      <trkpt lat="43.37471" lon="5.43929">
        <ele>310.33</ele>
        <time>2021-11-14T09:21:17.000Z</time>
      </trkpt>
      <trkpt lat="43.37456" lon="5.43954">
        <ele>310.26</ele>
        <time>2021-11-14T09:21:22.000Z</time>
      </trkpt>
      <trkpt lat="43.37439" lon="5.43967">
        <ele>310.95</ele>
        <time>2021-11-14T09:21:28.000Z</time>
      </trkpt>
      <trkpt lat="43.37428" lon="5.43987">
        <ele>311.94</ele>
        <time>2021-11-14T09:21:34.000Z</time>
      </trkpt>
      <trkpt lat="43.37418" lon="5.44011">
        <ele>313.32</ele>
        <time>2021-11-14T09:21:42.000Z</time>
      </trkpt>
      <trkpt lat="43.37403" lon="5.44028">
        <ele>313.28</ele>
        <time>2021-11-14T09:21:48.000Z</time>
      </trkpt>
      <trkpt lat="43.37386" lon="5.44041">
        <ele>313.57</ele>
        <time>2021-11-14T09:21:54.000Z</time>
      </trkpt>
      <trkpt lat="43.37368" lon="5.44048">
        <ele>314.02</ele>
        <time>2021-11-14T09:22:00.000Z</time>
      </trkpt>
      <trkpt lat="43.37353" lon="5.44033">
        <ele>315.14</ele>
        <time>2021-11-14T09:22:10.000Z</time>
      </trkpt>
      <trkpt lat="43.3737" lon="5.44018">
        <ele>315.8</ele>
        <time>2021-11-14T09:22:17.000Z</time>
      </trkpt>
      <trkpt lat="43.37384" lon="5.44001">
        <ele>317.49</ele>
        <time>2021-11-14T09:22:25.000Z</time>
      </trkpt>
      <trkpt lat="43.37387" lon="5.43975">
        <ele>319.42</ele>
        <time>2021-11-14T09:22:42.000Z</time>
      </trkpt>
      <trkpt lat="43.37404" lon="5.43966">
        <ele>320.73</ele>
        <time>2021-11-14T09:25:53.000Z</time>
      </trkpt>
      <trkpt lat="43.37413" lon="5.43944">
        <ele>321.9</ele>
        <time>2021-11-14T09:26:00.000Z</time>
      </trkpt>
      <trkpt lat="43.3742" lon="5.43921">
        <ele>322.91</ele>
        <time>2021-11-14T09:26:07.000Z</time>
      </trkpt>
      <trkpt lat="43.37433" lon="5.43901">
        <ele>324.28</ele>
        <time>2021-11-14T09:26:16.000Z</time>
      </trkpt>
      <trkpt lat="43.37444" lon="5.43879">
        <ele>326.5</ele>
        <time>2021-11-14T09:26:25.000Z</time>
      </trkpt>
      <trkpt lat="43.37455" lon="5.43859">
        <ele>327.99</ele>
        <time>2021-11-14T09:26:35.000Z</time>
      </trkpt>
      <trkpt lat="43.37469" lon="5.43838">
        <ele>329.73</ele>
        <time>2021-11-14T09:26:45.000Z</time>
      </trkpt>
      <trkpt lat="43.37481" lon="5.43817">
        <ele>331.68</ele>
        <time>2021-11-14T09:26:54.000Z</time>
      </trkpt>
      <trkpt lat="43.37494" lon="5.43799">
        <ele>333.83</ele>
        <time>2021-11-14T09:27:04.000Z</time>
      </trkpt>
      <trkpt lat="43.3751" lon="5.43784">
        <ele>335.56</ele>
        <time>2021-11-14T09:27:13.000Z</time>
      </trkpt>
      <trkpt lat="43.37526" lon="5.43767">
        <ele>337.28</ele>
        <time>2021-11-14T09:27:23.000Z</time>
      </trkpt>
      <trkpt lat="43.37541" lon="5.43752">
        <ele>339.07</ele>
        <time>2021-11-14T09:27:33.000Z</time>
      </trkpt>
      <trkpt lat="43.37557" lon="5.43736">
        <ele>340.67</ele>
        <time>2021-11-14T09:27:42.000Z</time>
      </trkpt>
      <trkpt lat="43.37572" lon="5.43719">
        <ele>342.73</ele>
        <time>2021-11-14T09:27:53.000Z</time>
      </trkpt>
      <trkpt lat="43.37584" lon="5.43701">
        <ele>345.08</ele>
        <time>2021-11-14T09:28:03.000Z</time>
      </trkpt>
      <trkpt lat="43.37593" lon="5.43678">
        <ele>347.32</ele>
        <time>2021-11-14T09:28:14.000Z</time>
      </trkpt>
      <trkpt lat="43.37603" lon="5.43657">
        <ele>349.17</ele>
        <time>2021-11-14T09:28:24.000Z</time>
      </trkpt>
      <trkpt lat="43.37612" lon="5.43634">
        <ele>351.42</ele>
        <time>2021-11-14T09:28:36.000Z</time>
      </trkpt>
      <trkpt lat="43.3762" lon="5.4361">
        <ele>353.23</ele>
        <time>2021-11-14T09:28:47.000Z</time>
      </trkpt>
      <trkpt lat="43.37624" lon="5.43584">
        <ele>356.01</ele>
        <time>2021-11-14T09:28:59.000Z</time>
      </trkpt>
      <trkpt lat="43.3764" lon="5.43568">
        <ele>357.94</ele>
        <time>2021-11-14T09:29:10.000Z</time>
      </trkpt>
      <trkpt lat="43.37656" lon="5.43555">
        <ele>359.96</ele>
        <time>2021-11-14T09:29:21.000Z</time>
      </trkpt>
      <trkpt lat="43.37673" lon="5.4354">
        <ele>361.51</ele>
        <time>2021-11-14T09:29:32.000Z</time>
      </trkpt>
      <trkpt lat="43.37688" lon="5.43526">
        <ele>362.73</ele>
        <time>2021-11-14T09:29:41.000Z</time>
      </trkpt>
      <trkpt lat="43.37705" lon="5.43513">
        <ele>363.97</ele>
        <time>2021-11-14T09:29:51.000Z</time>
      </trkpt>
      <trkpt lat="43.37719" lon="5.43499">
        <ele>364.82</ele>
        <time>2021-11-14T09:30:00.000Z</time>
      </trkpt>
      <trkpt lat="43.3773" lon="5.43478">
        <ele>366.08</ele>
        <time>2021-11-14T09:30:10.000Z</time>
      </trkpt>
      <trkpt lat="43.37738" lon="5.43455">
        <ele>367.93</ele>
        <time>2021-11-14T09:30:23.000Z</time>
      </trkpt>
      <trkpt lat="43.3775" lon="5.43434">
        <ele>369.37</ele>
        <time>2021-11-14T09:30:34.000Z</time>
      </trkpt>
      <trkpt lat="43.37762" lon="5.43412">
        <ele>370.62</ele>
        <time>2021-11-14T09:30:45.000Z</time>
      </trkpt>
      <trkpt lat="43.37772" lon="5.4339">
        <ele>371.57</ele>
        <time>2021-11-14T09:30:55.000Z</time>
      </trkpt>
      <trkpt lat="43.37783" lon="5.43368">
        <ele>372.26</ele>
        <time>2021-11-14T09:31:05.000Z</time>
      </trkpt>
      <trkpt lat="43.37789" lon="5.43344">
        <ele>373.55</ele>
        <time>2021-11-14T09:31:15.000Z</time>
      </trkpt>
      <trkpt lat="43.37794" lon="5.4332">
        <ele>374.74</ele>
        <time>2021-11-14T09:31:24.000Z</time>
      </trkpt>
      <trkpt lat="43.37798" lon="5.43296">
        <ele>375.8</ele>
        <time>2021-11-14T09:31:33.000Z</time>
      </trkpt>
      <trkpt lat="43.37805" lon="5.43273">
        <ele>376.55</ele>
        <time>2021-11-14T09:31:43.000Z</time>
      </trkpt>
      <trkpt lat="43.37816" lon="5.43252">
        <ele>378.01</ele>
        <time>2021-11-14T09:31:55.000Z</time>
      </trkpt>
      <trkpt lat="43.37827" lon="5.43232">
        <ele>379.97</ele>
        <time>2021-11-14T09:32:06.000Z</time>
      </trkpt>
      <trkpt lat="43.37838" lon="5.43211">
        <ele>382.05</ele>
        <time>2021-11-14T09:32:18.000Z</time>
      </trkpt>
      <trkpt lat="43.3785" lon="5.43191">
        <ele>384.05</ele>
        <time>2021-11-14T09:32:31.000Z</time>
      </trkpt>
      <trkpt lat="43.37864" lon="5.43175">
        <ele>386.06</ele>
        <time>2021-11-14T09:32:43.000Z</time>
      </trkpt>
      <trkpt lat="43.37875" lon="5.43155">
        <ele>387.71</ele>
        <time>2021-11-14T09:32:54.000Z</time>
      </trkpt>
      <trkpt lat="43.37886" lon="5.43133">
        <ele>389.99</ele>
        <time>2021-11-14T09:33:06.000Z</time>
      </trkpt>
      <trkpt lat="43.37896" lon="5.43111">
        <ele>392.04</ele>
        <time>2021-11-14T09:33:18.000Z</time>
      </trkpt>
      <trkpt lat="43.37907" lon="5.4309">
        <ele>393.52</ele>
        <time>2021-11-14T09:33:30.000Z</time>
      </trkpt>
      <trkpt lat="43.37918" lon="5.43068">
        <ele>395.21</ele>
        <time>2021-11-14T09:33:43.000Z</time>
      </trkpt>
      <trkpt lat="43.37934" lon="5.43055">
        <ele>397.17</ele>
        <time>2021-11-14T09:33:55.000Z</time>
      </trkpt>
      <trkpt lat="43.37953" lon="5.43056">
        <ele>398.38</ele>
        <time>2021-11-14T09:34:07.000Z</time>
      </trkpt>
      <trkpt lat="43.37971" lon="5.4306">
        <ele>400.02</ele>
        <time>2021-11-14T09:34:20.000Z</time>
      </trkpt>
      <trkpt lat="43.37989" lon="5.43064">
        <ele>400.78</ele>
        <time>2021-11-14T09:34:32.000Z</time>
      </trkpt>
      <trkpt lat="43.38007" lon="5.43058">
        <ele>402.37</ele>
        <time>2021-11-14T09:34:45.000Z</time>
      </trkpt>
      <trkpt lat="43.38025" lon="5.43049">
        <ele>404.3</ele>
        <time>2021-11-14T09:34:59.000Z</time>
      </trkpt>
      <trkpt lat="43.38038" lon="5.4303">
        <ele>406.3</ele>
        <time>2021-11-14T09:40:56.000Z</time>
      </trkpt>
      <trkpt lat="43.38049" lon="5.43009">
        <ele>407.9</ele>
        <time>2021-11-14T09:41:09.000Z</time>
      </trkpt>
      <trkpt lat="43.38063" lon="5.4299">
        <ele>410.77</ele>
        <time>2021-11-14T09:41:23.000Z</time>
      </trkpt>
      <trkpt lat="43.38067" lon="5.42964">
        <ele>412.75</ele>
        <time>2021-11-14T09:41:35.000Z</time>
      </trkpt>
      <trkpt lat="43.38058" lon="5.42941">
        <ele>414.28</ele>
        <time>2021-11-14T09:41:46.000Z</time>
      </trkpt>
      <trkpt lat="43.38039" lon="5.42933">
        <ele>416.17</ele>
        <time>2021-11-14T09:41:56.000Z</time>
      </trkpt>
      <trkpt lat="43.3802" lon="5.42925">
        <ele>417.5</ele>
        <time>2021-11-14T09:42:07.000Z</time>
      </trkpt>
      <trkpt lat="43.38003" lon="5.42912">
        <ele>418.14</ele>
        <time>2021-11-14T09:42:15.000Z</time>
      </trkpt>
      <trkpt lat="43.37986" lon="5.42898">
        <ele>419.4</ele>
        <time>2021-11-14T09:42:23.000Z</time>
      </trkpt>
      <trkpt lat="43.37969" lon="5.42886">
        <ele>420.63</ele>
        <time>2021-11-14T09:42:30.000Z</time>
      </trkpt>
      <trkpt lat="43.37952" lon="5.42872">
        <ele>421.39</ele>
        <time>2021-11-14T09:42:37.000Z</time>
      </trkpt>
      <trkpt lat="43.37935" lon="5.42859">
        <ele>421.93</ele>
        <time>2021-11-14T09:42:44.000Z</time>
      </trkpt>
      <trkpt lat="43.37917" lon="5.42845">
        <ele>422.7</ele>
        <time>2021-11-14T09:42:52.000Z</time>
      </trkpt>
      <trkpt lat="43.37903" lon="5.42826">
        <ele>423.47</ele>
        <time>2021-11-14T09:42:59.000Z</time>
      </trkpt>
      <trkpt lat="43.37905" lon="5.42801">
        <ele>425.16</ele>
        <time>2021-11-14T09:43:07.000Z</time>
      </trkpt>
      <trkpt lat="43.37922" lon="5.4279">
        <ele>426.24</ele>
        <time>2021-11-14T09:43:14.000Z</time>
      </trkpt>
      <trkpt lat="43.37938" lon="5.42777">
        <ele>428.05</ele>
        <time>2021-11-14T09:43:22.000Z</time>
      </trkpt>
      <trkpt lat="43.37954" lon="5.42762">
        <ele>429.61</ele>
        <time>2021-11-14T09:43:32.000Z</time>
      </trkpt>
      <trkpt lat="43.37966" lon="5.42744">
        <ele>430.94</ele>
        <time>2021-11-14T09:43:41.000Z</time>
      </trkpt>
      <trkpt lat="43.37974" lon="5.42721">
        <ele>431.71</ele>
        <time>2021-11-14T09:43:50.000Z</time>
      </trkpt>
      <trkpt lat="43.37983" lon="5.42696">
        <ele>432.15</ele>
        <time>2021-11-14T09:43:59.000Z</time>
      </trkpt>
      <trkpt lat="43.37991" lon="5.42673">
        <ele>432.75</ele>
        <time>2021-11-14T09:44:07.000Z</time>
      </trkpt>
      <trkpt lat="43.38" lon="5.42651">
        <ele>433.03</ele>
        <time>2021-11-14T09:44:15.000Z</time>
      </trkpt>
      <trkpt lat="43.38017" lon="5.42635">
        <ele>433.4</ele>
        <time>2021-11-14T09:44:23.000Z</time>
      </trkpt>
      <trkpt lat="43.38036" lon="5.42625">
        <ele>433.58</ele>
        <time>2021-11-14T09:44:31.000Z</time>
      </trkpt>
      <trkpt lat="43.38051" lon="5.42609">
        <ele>434.45</ele>
        <time>2021-11-14T09:44:39.000Z</time>
      </trkpt>
      <trkpt lat="43.38068" lon="5.42594">
        <ele>435.15</ele>
        <time>2021-11-14T09:44:47.000Z</time>
      </trkpt>
      <trkpt lat="43.38086" lon="5.42583">
        <ele>435.93</ele>
        <time>2021-11-14T09:44:54.000Z</time>
      </trkpt>
      <trkpt lat="43.38093" lon="5.4256">
        <ele>436.4</ele>
        <time>2021-11-14T09:45:01.000Z</time>
      </trkpt>
      <trkpt lat="43.3809" lon="5.42534">
        <ele>436.47</ele>
        <time>2021-11-14T09:45:07.000Z</time>
      </trkpt>
      <trkpt lat="43.38089" lon="5.42507">
        <ele>436.67</ele>
        <time>2021-11-14T09:45:13.000Z</time>
      </trkpt>
      <trkpt lat="43.3808" lon="5.42484">
        <ele>436.38</ele>
        <time>2021-11-14T09:45:18.000Z</time>
      </trkpt>
      <trkpt lat="43.38064" lon="5.42465">
        <ele>436.47</ele>
        <time>2021-11-14T09:45:24.000Z</time>
      </trkpt>
      <trkpt lat="43.38049" lon="5.42448">
        <ele>436.3</ele>
        <time>2021-11-14T09:45:30.000Z</time>
      </trkpt>
      <trkpt lat="43.3803" lon="5.42435">
        <ele>437.47</ele>
        <time>2021-11-14T09:45:36.000Z</time>
      </trkpt>
      <trkpt lat="43.38013" lon="5.42421">
        <ele>437.85</ele>
        <time>2021-11-14T09:45:42.000Z</time>
      </trkpt>
      <trkpt lat="43.37996" lon="5.42407">
        <ele>438.2</ele>
        <time>2021-11-14T09:45:48.000Z</time>
      </trkpt>
      <trkpt lat="43.3798" lon="5.42394">
        <ele>438.19</ele>
        <time>2021-11-14T09:45:53.000Z</time>
      </trkpt>
      <trkpt lat="43.37966" lon="5.42376">
        <ele>437.92</ele>
        <time>2021-11-14T09:45:58.000Z</time>
      </trkpt>
      <trkpt lat="43.37954" lon="5.42355">
        <ele>437.82</ele>
        <time>2021-11-14T09:46:03.000Z</time>
      </trkpt>
      <trkpt lat="43.37944" lon="5.42334">
        <ele>437.92</ele>
        <time>2021-11-14T09:46:08.000Z</time>
      </trkpt>
      <trkpt lat="43.37943" lon="5.42306">
        <ele>437.52</ele>
        <time>2021-11-14T09:46:13.000Z</time>
      </trkpt>
      <trkpt lat="43.37949" lon="5.4228">
        <ele>437.96</ele>
        <time>2021-11-14T09:46:18.000Z</time>
      </trkpt>
      <trkpt lat="43.37959" lon="5.42256">
        <ele>439.34</ele>
        <time>2021-11-14T09:46:24.000Z</time>
      </trkpt>
      <trkpt lat="43.37975" lon="5.42238">
        <ele>440.31</ele>
        <time>2021-11-14T09:46:31.000Z</time>
      </trkpt>
      <trkpt lat="43.37991" lon="5.42224">
        <ele>441.47</ele>
        <time>2021-11-14T09:46:37.000Z</time>
      </trkpt>
      <trkpt lat="43.38004" lon="5.42207">
        <ele>442.35</ele>
        <time>2021-11-14T09:46:43.000Z</time>
      </trkpt>
      <trkpt lat="43.38013" lon="5.42184">
        <ele>443.91</ele>
        <time>2021-11-14T09:46:51.000Z</time>
      </trkpt>
      <trkpt lat="43.38018" lon="5.4216">
        <ele>444.32</ele>
        <time>2021-11-14T09:46:57.000Z</time>
      </trkpt>
      <trkpt lat="43.38021" lon="5.42132">
        <ele>444.82</ele>
        <time>2021-11-14T09:47:04.000Z</time>
      </trkpt>
      <trkpt lat="43.38024" lon="5.42103">
        <ele>445.11</ele>
        <time>2021-11-14T09:47:11.000Z</time>
      </trkpt>
      <trkpt lat="43.38025" lon="5.42078">
        <ele>446.21</ele>
        <time>2021-11-14T09:47:17.000Z</time>
      </trkpt>
      <trkpt lat="43.38026" lon="5.4205">
        <ele>446.41</ele>
        <time>2021-11-14T09:47:24.000Z</time>
      </trkpt>
      <trkpt lat="43.38033" lon="5.42026">
        <ele>446.73</ele>
        <time>2021-11-14T09:52:40.000Z</time>
      </trkpt>
      <trkpt lat="43.38049" lon="5.42013">
        <ele>447.81</ele>
        <time>2021-11-14T09:52:49.000Z</time>
      </trkpt>
      <trkpt lat="43.38067" lon="5.42008">
        <ele>449.5</ele>
        <time>2021-11-14T09:52:57.000Z</time>
      </trkpt>
      <trkpt lat="43.38086" lon="5.42011">
        <ele>451.52</ele>
        <time>2021-11-14T09:53:08.000Z</time>
      </trkpt>
      <trkpt lat="43.38104" lon="5.42015">
        <ele>453.1</ele>
        <time>2021-11-14T09:53:19.000Z</time>
      </trkpt>
      <trkpt lat="43.38121" lon="5.42025">
        <ele>454.2</ele>
        <time>2021-11-14T09:53:28.000Z</time>
      </trkpt>
      <trkpt lat="43.38137" lon="5.42037">
        <ele>456.23</ele>
        <time>2021-11-14T09:53:39.000Z</time>
      </trkpt>
      <trkpt lat="43.38152" lon="5.42053">
        <ele>457.48</ele>
        <time>2021-11-14T09:53:48.000Z</time>
      </trkpt>
      <trkpt lat="43.38167" lon="5.42068">
        <ele>460.07</ele>
        <time>2021-11-14T09:53:58.000Z</time>
      </trkpt>
      <trkpt lat="43.38182" lon="5.42083">
        <ele>461.27</ele>
        <time>2021-11-14T09:54:07.000Z</time>
      </trkpt>
      <trkpt lat="43.382" lon="5.42078">
        <ele>462.88</ele>
        <time>2021-11-14T09:54:16.000Z</time>
      </trkpt>
      <trkpt lat="43.38219" lon="5.4207">
        <ele>464.4</ele>
        <time>2021-11-14T09:54:27.000Z</time>
      </trkpt>
      <trkpt lat="43.38236" lon="5.42061">
        <ele>465.84</ele>
        <time>2021-11-14T09:54:36.000Z</time>
      </trkpt>
      <trkpt lat="43.38254" lon="5.4205">
        <ele>467.3</ele>
        <time>2021-11-14T09:54:45.000Z</time>
      </trkpt>
      <trkpt lat="43.38271" lon="5.42045">
        <ele>469.09</ele>
        <time>2021-11-14T09:54:54.000Z</time>
      </trkpt>
      <trkpt lat="43.38291" lon="5.42046">
        <ele>470.7</ele>
        <time>2021-11-14T09:55:04.000Z</time>
      </trkpt>
      <trkpt lat="43.38308" lon="5.42056">
        <ele>472.11</ele>
        <time>2021-11-14T09:55:15.000Z</time>
      </trkpt>
      <trkpt lat="43.38325" lon="5.42065">
        <ele>474.31</ele>
        <time>2021-11-14T09:55:25.000Z</time>
      </trkpt>
      <trkpt lat="43.38338" lon="5.42082">
        <ele>477.36</ele>
        <time>2021-11-14T09:55:36.000Z</time>
      </trkpt>
      <trkpt lat="43.38351" lon="5.42102">
        <ele>479.91</ele>
        <time>2021-11-14T09:55:48.000Z</time>
      </trkpt>
      <trkpt lat="43.38362" lon="5.42124">
        <ele>481.82</ele>
        <time>2021-11-14T09:56:00.000Z</time>
      </trkpt>
      <trkpt lat="43.38367" lon="5.42148">
        <ele>484.1</ele>
        <time>2021-11-14T09:56:13.000Z</time>
      </trkpt>
      <trkpt lat="43.38373" lon="5.42172">
        <ele>486.09</ele>
        <time>2021-11-14T09:56:25.000Z</time>
      </trkpt>
      <trkpt lat="43.38377" lon="5.42198">
        <ele>488.12</ele>
        <time>2021-11-14T09:56:39.000Z</time>
      </trkpt>
      <trkpt lat="43.38395" lon="5.42206">
        <ele>489.75</ele>
        <time>2021-11-14T09:56:52.000Z</time>
      </trkpt>
      <trkpt lat="43.3841" lon="5.42192">
        <ele>492.38</ele>
        <time>2021-11-14T09:57:04.000Z</time>
      </trkpt>
      <trkpt lat="43.38427" lon="5.42178">
        <ele>493.9</ele>
        <time>2021-11-14T09:57:15.000Z</time>
      </trkpt>
      <trkpt lat="43.38445" lon="5.42164">
        <ele>495.4</ele>
        <time>2021-11-14T09:57:26.000Z</time>
      </trkpt>
      <trkpt lat="43.38452" lon="5.4214">
        <ele>496.22</ele>
        <time>2021-11-14T09:57:35.000Z</time>
      </trkpt>
      <trkpt lat="43.38457" lon="5.42116">
        <ele>497.62</ele>
        <time>2021-11-14T09:57:46.000Z</time>
      </trkpt>
      <trkpt lat="43.38467" lon="5.42094">
        <ele>498.91</ele>
        <time>2021-11-14T09:57:56.000Z</time>
      </trkpt>
      <trkpt lat="43.38482" lon="5.42077">
        <ele>501.09</ele>
        <time>2021-11-14T09:58:08.000Z</time>
      </trkpt>
      <trkpt lat="43.3849" lon="5.42055">
        <ele>502.86</ele>
        <time>2021-11-14T09:58:18.000Z</time>
      </trkpt>
      <trkpt lat="43.38488" lon="5.42029">
        <ele>504.87</ele>
        <time>2021-11-14T09:58:29.000Z</time>
      </trkpt>
      <trkpt lat="43.38484" lon="5.42004">
        <ele>506.69</ele>
        <time>2021-11-14T09:58:40.000Z</time>
      </trkpt>
      <trkpt lat="43.38489" lon="5.41978">
        <ele>507.69</ele>
        <time>2021-11-14T09:58:50.000Z</time>
      </trkpt>
      <trkpt lat="43.38494" lon="5.41954">
        <ele>509.58</ele>
        <time>2021-11-14T09:59:02.000Z</time>
      </trkpt>
      <trkpt lat="43.38504" lon="5.41933">
        <ele>510.98</ele>
        <time>2021-11-14T09:59:12.000Z</time>
      </trkpt>
      <trkpt lat="43.38522" lon="5.4193">
        <ele>512.2</ele>
        <time>2021-11-14T09:59:23.000Z</time>
      </trkpt>
      <trkpt lat="43.38536" lon="5.41948">
        <ele>514.95</ele>
        <time>2021-11-14T09:59:36.000Z</time>
      </trkpt>
      <trkpt lat="43.38549" lon="5.41966">
        <ele>517.03</ele>
        <time>2021-11-14T09:59:47.000Z</time>
      </trkpt>
      <trkpt lat="43.38567" lon="5.41977">
        <ele>519.36</ele>
        <time>2021-11-14T10:00:00.000Z</time>
      </trkpt>
      <trkpt lat="43.38586" lon="5.41977">
        <ele>520.6</ele>
        <time>2021-11-14T10:00:12.000Z</time>
      </trkpt>
      <trkpt lat="43.38604" lon="5.41972">
        <ele>522.07</ele>
        <time>2021-11-14T10:00:23.000Z</time>
      </trkpt>
      <trkpt lat="43.38623" lon="5.41965">
        <ele>523.55</ele>
        <time>2021-11-14T10:00:35.000Z</time>
      </trkpt>
      <trkpt lat="43.38638" lon="5.41948">
        <ele>525.21</ele>
        <time>2021-11-14T10:06:46.000Z</time>
      </trkpt>
      <trkpt lat="43.38653" lon="5.41931">
        <ele>525.36</ele>
        <time>2021-11-14T10:06:55.000Z</time>
      </trkpt>
      <trkpt lat="43.38669" lon="5.41913">
        <ele>525.54</ele>
        <time>2021-11-14T10:07:03.000Z</time>
      </trkpt>
      <trkpt lat="43.38682" lon="5.41896">
        <ele>525.07</ele>
        <time>2021-11-14T10:07:10.000Z</time>
      </trkpt>
      <trkpt lat="43.38695" lon="5.41875">
        <ele>524.25</ele>
        <time>2021-11-14T10:07:17.000Z</time>
      </trkpt>
      <trkpt lat="43.38709" lon="5.41856">
        <ele>523.82</ele>
        <time>2021-11-14T10:07:24.000Z</time>
      </trkpt>
      <trkpt lat="43.38725" lon="5.41836">
        <ele>522.84</ele>
        <time>2021-11-14T10:07:30.000Z</time>
      </trkpt>
      <trkpt lat="43.38741" lon="5.41814">
        <ele>521.52</ele>
        <time>2021-11-14T10:07:34.000Z</time>
      </trkpt>
      <trkpt lat="43.38758" lon="5.41792">
        <ele>520.29</ele>
        <time>2021-11-14T10:07:38.000Z</time>
      </trkpt>
      <trkpt lat="43.38775" lon="5.41774">
        <ele>518.91</ele>
        <time>2021-11-14T10:07:41.000Z</time>
      </trkpt>
      <trkpt lat="43.3879" lon="5.41755">
        <ele>518.09</ele>
        <time>2021-11-14T10:07:44.000Z</time>
      </trkpt>
      <trkpt lat="43.38808" lon="5.41737">
        <ele>518.12</ele>
        <time>2021-11-14T10:07:48.000Z</time>
      </trkpt>
      <trkpt lat="43.38816" lon="5.41711">
        <ele>517.64</ele>
        <time>2021-11-14T10:07:52.000Z</time>
      </trkpt>
      <trkpt lat="43.38822" lon="5.41684">
        <ele>517.03</ele>
        <time>2021-11-14T10:07:56.000Z</time>
      </trkpt>
      <trkpt lat="43.38826" lon="5.41656">
        <ele>516.67</ele>
        <time>2021-11-14T10:08:00.000Z</time>
      </trkpt>
      <trkpt lat="43.38827" lon="5.41629">
        <ele>516.23</ele>
        <time>2021-11-14T10:08:04.000Z</time>
      </trkpt>
      <trkpt lat="43.38834" lon="5.41605">
        <ele>515.83</ele>
        <time>2021-11-14T10:08:08.000Z</time>
      </trkpt>
      <trkpt lat="43.38845" lon="5.41579">
        <ele>515.3</ele>
        <time>2021-11-14T10:08:13.000Z</time>
      </trkpt>
      <trkpt lat="43.38856" lon="5.41558">
        <ele>514.66</ele>
        <time>2021-11-14T10:08:17.000Z</time>
      </trkpt>
      <trkpt lat="43.38862" lon="5.4153">
        <ele>514.03</ele>
        <time>2021-11-14T10:08:21.000Z</time>
      </trkpt>
      <trkpt lat="43.38864" lon="5.41503">
        <ele>512.97</ele>
        <time>2021-11-14T10:08:24.000Z</time>
      </trkpt>
      <trkpt lat="43.38855" lon="5.4148">
        <ele>511.86</ele>
        <time>2021-11-14T10:08:27.000Z</time>
      </trkpt>
      <trkpt lat="43.38842" lon="5.41455">
        <ele>510.41</ele>
        <time>2021-11-14T10:08:30.000Z</time>
      </trkpt>
      <trkpt lat="43.38834" lon="5.41427">
        <ele>509.39</ele>
        <time>2021-11-14T10:08:33.000Z</time>
      </trkpt>
      <trkpt lat="43.38831" lon="5.41399">
        <ele>509.12</ele>
        <time>2021-11-14T10:08:36.000Z</time>
      </trkpt>
      <trkpt lat="43.38829" lon="5.41371">
        <ele>507.85</ele>
        <time>2021-11-14T10:08:39.000Z</time>
      </trkpt>
      <trkpt lat="43.38818" lon="5.41346">
        <ele>507.2</ele>
        <time>2021-11-14T10:08:42.000Z</time>
      </trkpt>
      <trkpt lat="43.38799" lon="5.41337">
        <ele>505.95</ele>
        <time>2021-11-14T10:08:45.000Z</time>
      </trkpt>
      <trkpt lat="43.38778" lon="5.41337">
        <ele>505.09</ele>
        <time>2021-11-14T10:08:48.000Z</time>
      </trkpt>
      <trkpt lat="43.38759" lon="5.41329">
        <ele>504.29</ele>
        <time>2021-11-14T10:08:51.000Z</time>
      </trkpt>
      <trkpt lat="43.38744" lon="5.41311">
        <ele>503.26</ele>
        <time>2021-11-14T10:08:54.000Z</time>
      </trkpt>
      <trkpt lat="43.38726" lon="5.41293">
        <ele>501.79</ele>
        <time>2021-11-14T10:08:57.000Z</time>
      </trkpt>
      <trkpt lat="43.38707" lon="5.41282">
        <ele>501.03</ele>
        <time>2021-11-14T10:09:00.000Z</time>
      </trkpt>
      <trkpt lat="43.38689" lon="5.41273">
        <ele>500.92</ele>
        <time>2021-11-14T10:09:03.000Z</time>
      </trkpt>
      <trkpt lat="43.38669" lon="5.4126">
        <ele>500.93</ele>
        <time>2021-11-14T10:09:07.000Z</time>
      </trkpt>
      <trkpt lat="43.38657" lon="5.41237">
        <ele>500.43</ele>
        <time>2021-11-14T10:09:11.000Z</time>
      </trkpt>
      <trkpt lat="43.38655" lon="5.4121">
        <ele>499.64</ele>
        <time>2021-11-14T10:09:15.000Z</time>
      </trkpt>
      <trkpt lat="43.38654" lon="5.41182">
        <ele>499.55</ele>
        <time>2021-11-14T10:09:19.000Z</time>
      </trkpt>
      <trkpt lat="43.3865" lon="5.41152">
        <ele>498.81</ele>
        <time>2021-11-14T10:09:23.000Z</time>
      </trkpt>
      <trkpt lat="43.38641" lon="5.41127">
        <ele>497.85</ele>
        <time>2021-11-14T10:09:27.000Z</time>
      </trkpt>
      <trkpt lat="43.38625" lon="5.41105">
        <ele>497.18</ele>
        <time>2021-11-14T10:09:31.000Z</time>
      </trkpt>
      <trkpt lat="43.38605" lon="5.41089">
        <ele>496.35</ele>
        <time>2021-11-14T10:09:35.000Z</time>
      </trkpt>
      <trkpt lat="43.38583" lon="5.4108">
        <ele>495.63</ele>
        <time>2021-11-14T10:09:39.000Z</time>
      </trkpt>
      <trkpt lat="43.38563" lon="5.41076">
        <ele>495.67</ele>
        <time>2021-11-14T10:09:43.000Z</time>
      </trkpt>
      <trkpt lat="43.38543" lon="5.41074">
        <ele>495.94</ele>
        <time>2021-11-14T10:09:47.000Z</time>
      </trkpt>
      <trkpt lat="43.38525" lon="5.41072">
        <ele>496.15</ele>
        <time>2021-11-14T10:09:51.000Z</time>
      </trkpt>
      <trkpt lat="43.38507" lon="5.41071">
        <ele>496.06</ele>
        <time>2021-11-14T10:09:55.000Z</time>
      </trkpt>
      <trkpt lat="43.38488" lon="5.41069">
        <ele>495.8</ele>
        <time>2021-11-14T10:09:59.000Z</time>
      </trkpt>
      <trkpt lat="43.38469" lon="5.41065">
        <ele>495.54</ele>
        <time>2021-11-14T10:10:03.000Z</time>
      </trkpt>
      <trkpt lat="43.38449" lon="5.41063">
        <ele>495.62</ele>
        <time>2021-11-14T10:10:08.000Z</time>
      </trkpt>
      <trkpt lat="43.38431" lon="5.41058">
        <ele>494.96</ele>
        <time>2021-11-14T10:10:16.000Z</time>
      </trkpt>
      <trkpt lat="43.38413" lon="5.41069">
        <ele>491.92</ele>
        <time>2021-11-14T10:14:34.000Z</time>
      </trkpt>
      <trkpt lat="43.38397" lon="5.41081">
        <ele>486.38</ele>
        <time>2021-11-14T10:14:43.000Z</time>
      </trkpt>
      <trkpt lat="43.38379" lon="5.41076">
        <ele>482.63</ele>
        <time>2021-11-14T10:14:51.000Z</time>
      </trkpt>
      <trkpt lat="43.38361" lon="5.41085">
        <ele>478.2</ele>
        <time>2021-11-14T10:14:59.000Z</time>
      </trkpt>
      <trkpt lat="43.38342" lon="5.41085">
        <ele>475.28</ele>
        <time>2021-11-14T10:15:22.000Z</time>
      </trkpt>
      <trkpt lat="43.38322" lon="5.41088">
        <ele>472.91</ele>
        <time>2021-11-14T10:15:29.000Z</time>
      </trkpt>
      <trkpt lat="43.38304" lon="5.41095">
        <ele>471.63</ele>
        <time>2021-11-14T10:15:35.000Z</time>
      </trkpt>
      <trkpt lat="43.38285" lon="5.41098">
        <ele>470.12</ele>
        <time>2021-11-14T10:15:42.000Z</time>
      </trkpt>
      <trkpt lat="43.38265" lon="5.41094">
        <ele>468.28</ele>
        <time>2021-11-14T10:15:49.000Z</time>
      </trkpt>
      <trkpt lat="43.38245" lon="5.41092">
        <ele>465.87</ele>
        <time>2021-11-14T10:15:55.000Z</time>
      </trkpt>
      <trkpt lat="43.38229" lon="5.41082">
        <ele>463.17</ele>
        <time>2021-11-14T10:16:03.000Z</time>
      </trkpt>
      <trkpt lat="43.3821" lon="5.41078">
        <ele>460.49</ele>
        <time>2021-11-14T10:16:13.000Z</time>
      </trkpt>
      <trkpt lat="43.38194" lon="5.41064">
        <ele>456.09</ele>
        <time>2021-11-14T10:16:25.000Z</time>
      </trkpt>
      <trkpt lat="43.38175" lon="5.4107">
        <ele>452.12</ele>
        <time>2021-11-14T10:16:36.000Z</time>
      </trkpt>
      <trkpt lat="43.38157" lon="5.41077">
        <ele>447.55</ele>
        <time>2021-11-14T10:16:48.000Z</time>
      </trkpt>
      <trkpt lat="43.38139" lon="5.41075">
        <ele>442.03</ele>
        <time>2021-11-14T10:16:59.000Z</time>
      </trkpt>
      <trkpt lat="43.38122" lon="5.41085">
        <ele>436.27</ele>
        <time>2021-11-14T10:17:11.000Z</time>
      </trkpt>
      <trkpt lat="43.38103" lon="5.41088">
        <ele>431.17</ele>
        <time>2021-11-14T10:17:20.000Z</time>
      </trkpt>
      <trkpt lat="43.38084" lon="5.41092">
        <ele>426.77</ele>
        <time>2021-11-14T10:17:30.000Z</time>
      </trkpt>
      <trkpt lat="43.38065" lon="5.41096">
        <ele>423.26</ele>
        <time>2021-11-14T10:19:02.000Z</time>
      </trkpt>
      <trkpt lat="43.38046" lon="5.41101">
        <ele>420.48</ele>
        <time>2021-11-14T10:19:10.000Z</time>
      </trkpt>
      <trkpt lat="43.3803" lon="5.41113">
        <ele>417.71</ele>
        <time>2021-11-14T10:19:17.000Z</time>
      </trkpt>
      <trkpt lat="43.38011" lon="5.41107">
        <ele>414.6</ele>
        <time>2021-11-14T10:19:25.000Z</time>
      </trkpt>
      <trkpt lat="43.37994" lon="5.41118">
        <ele>411.13</ele>
        <time>2021-11-14T10:19:34.000Z</time>
      </trkpt>
      <trkpt lat="43.37977" lon="5.41131">
        <ele>407.84</ele>
        <time>2021-11-14T10:19:43.000Z</time>
      </trkpt>
      <trkpt lat="43.37963" lon="5.41148">
        <ele>403.57</ele>
        <time>2021-11-14T10:19:51.000Z</time>
      </trkpt>
      <trkpt lat="43.37949" lon="5.41164">
        <ele>399.01</ele>
        <time>2021-11-14T10:20:02.000Z</time>
      </trkpt>
      <trkpt lat="43.37934" lon="5.41183">
        <ele>393.17</ele>
        <time>2021-11-14T10:20:15.000Z</time>
      </trkpt>
      <trkpt lat="43.3792" lon="5.41201">
        <ele>388.44</ele>
        <time>2021-11-14T10:20:36.000Z</time>
      </trkpt>
      <trkpt lat="43.37902" lon="5.41208">
        <ele>384.4</ele>
        <time>2021-11-14T10:20:46.000Z</time>
      </trkpt>
      <trkpt lat="43.37884" lon="5.41215">
        <ele>381.05</ele>
        <time>2021-11-14T10:20:55.000Z</time>
      </trkpt>
      <trkpt lat="43.37865" lon="5.41222">
        <ele>376.7</ele>
        <time>2021-11-14T10:21:04.000Z</time>
      </trkpt>
      <trkpt lat="43.37845" lon="5.41222">
        <ele>373.57</ele>
        <time>2021-11-14T10:21:13.000Z</time>
      </trkpt>
      <trkpt lat="43.37827" lon="5.41231">
        <ele>369.79</ele>
        <time>2021-11-14T10:21:21.000Z</time>
      </trkpt>
      <trkpt lat="43.37807" lon="5.41231">
        <ele>366.55</ele>
        <time>2021-11-14T10:21:30.000Z</time>
      </trkpt>
      <trkpt lat="43.37788" lon="5.41225">
        <ele>363.01</ele>
        <time>2021-11-14T10:21:38.000Z</time>
      </trkpt>
      <trkpt lat="43.3777" lon="5.41219">
        <ele>360.17</ele>
        <time>2021-11-14T10:21:46.000Z</time>
      </trkpt>
      <trkpt lat="43.37751" lon="5.41209">
        <ele>356.87</ele>
        <time>2021-11-14T10:21:55.000Z</time>
      </trkpt>
      <trkpt lat="43.37733" lon="5.41203">
        <ele>353.83</ele>
        <time>2021-11-14T10:22:03.000Z</time>
      </trkpt>
      <trkpt lat="43.37716" lon="5.41193">
        <ele>350.83</ele>
        <time>2021-11-14T10:22:11.000Z</time>
      </trkpt>
      <trkpt lat="43.377" lon="5.41182">
        <ele>348.83</ele>
        <time>2021-11-14T10:22:19.000Z</time>
      </trkpt>
      <trkpt lat="43.37683" lon="5.41171">
        <ele>346.24</ele>
        <time>2021-11-14T10:22:28.000Z</time>
      </trkpt>
      <trkpt lat="43.37664" lon="5.41176">
        <ele>343.79</ele>
        <time>2021-11-14T10:22:42.000Z</time>
      </trkpt>
      <trkpt lat="43.37649" lon="5.41193">
        <ele>338.88</ele>
        <time>2021-11-14T10:22:55.000Z</time>
      </trkpt>
      <trkpt lat="43.3763" lon="5.41199">
        <ele>335.13</ele>
        <time>2021-11-14T10:23:01.000Z</time>
      </trkpt>
      <trkpt lat="43.3762" lon="5.41221">
        <ele>334.75</ele>
        <time>2021-11-14T10:23:36.000Z</time>
      </trkpt>
      <trkpt lat="43.37603" lon="5.41228">
        <ele>335.12</ele>
        <time>2021-11-14T10:23:44.000Z</time>
      </trkpt>
      <trkpt lat="43.37586" lon="5.41218">
        <ele>335.54</ele>
        <time>2021-11-14T10:23:52.000Z</time>
      </trkpt>
      <trkpt lat="43.37573" lon="5.41197">
        <ele>335.87</ele>
        <time>2021-11-14T10:23:59.000Z</time>
      </trkpt>
      <trkpt lat="43.37563" lon="5.41176">
        <ele>335.6</ele>
        <time>2021-11-14T10:24:06.000Z</time>
      </trkpt>
      <trkpt lat="43.37554" lon="5.41152">
        <ele>335.44</ele>
        <time>2021-11-14T10:24:12.000Z</time>
      </trkpt>
      <trkpt lat="43.37543" lon="5.41127">
        <ele>334.88</ele>
        <time>2021-11-14T10:24:17.000Z</time>
      </trkpt>
      <trkpt lat="43.37531" lon="5.41105">
        <ele>334</ele>
        <time>2021-11-14T10:24:21.000Z</time>
      </trkpt>
      <trkpt lat="43.37516" lon="5.4108">
        <ele>333.32</ele>
        <time>2021-11-14T10:24:25.000Z</time>
      </trkpt>
      <trkpt lat="43.37504" lon="5.41056">
        <ele>332.56</ele>
        <time>2021-11-14T10:24:29.000Z</time>
      </trkpt>
      <trkpt lat="43.37499" lon="5.41081">
        <ele>331.98</ele>
        <time>2021-11-14T10:24:44.000Z</time>
      </trkpt>
      <trkpt lat="43.37507" lon="5.41105">
        <ele>332.26</ele>
        <time>2021-11-14T10:24:51.000Z</time>
      </trkpt>
      <trkpt lat="43.37511" lon="5.4113">
        <ele>333.94</ele>
        <time>2021-11-14T10:24:58.000Z</time>
      </trkpt>
      <trkpt lat="43.37514" lon="5.41156">
        <ele>335.87</ele>
        <time>2021-11-14T10:25:05.000Z</time>
      </trkpt>
      <trkpt lat="43.37505" lon="5.4118">
        <ele>336.06</ele>
        <time>2021-11-14T10:25:12.000Z</time>
      </trkpt>
      <trkpt lat="43.37495" lon="5.412">
        <ele>336.26</ele>
        <time>2021-11-14T10:25:18.000Z</time>
      </trkpt>
      <trkpt lat="43.37485" lon="5.41221">
        <ele>336.86</ele>
        <time>2021-11-14T10:25:24.000Z</time>
      </trkpt>
      <trkpt lat="43.37476" lon="5.41245">
        <ele>336.95</ele>
        <time>2021-11-14T10:25:30.000Z</time>
      </trkpt>
      <trkpt lat="43.37469" lon="5.4127">
        <ele>336.97</ele>
        <time>2021-11-14T10:25:36.000Z</time>
      </trkpt>
      <trkpt lat="43.3746" lon="5.41291">
        <ele>336.19</ele>
        <time>2021-11-14T10:25:42.000Z</time>
      </trkpt>
      <trkpt lat="43.37447" lon="5.41309">
        <ele>335.14</ele>
        <time>2021-11-14T10:25:49.000Z</time>
      </trkpt>
      <trkpt lat="43.37431" lon="5.41324">
        <ele>334.39</ele>
        <time>2021-11-14T10:25:55.000Z</time>
      </trkpt>
      <trkpt lat="43.37411" lon="5.41331">
        <ele>332.5</ele>
        <time>2021-11-14T10:26:01.000Z</time>
      </trkpt>
      <trkpt lat="43.37392" lon="5.41336">
        <ele>330.6</ele>
        <time>2021-11-14T10:26:06.000Z</time>
      </trkpt>
      <trkpt lat="43.37372" lon="5.41339">
        <ele>329.37</ele>
        <time>2021-11-14T10:26:11.000Z</time>
      </trkpt>
      <trkpt lat="43.37353" lon="5.41339">
        <ele>327.76</ele>
        <time>2021-11-14T10:26:16.000Z</time>
      </trkpt>
      <trkpt lat="43.37331" lon="5.4134">
        <ele>325.99</ele>
        <time>2021-11-14T10:26:21.000Z</time>
      </trkpt>
      <trkpt lat="43.37312" lon="5.41342">
        <ele>324.54</ele>
        <time>2021-11-14T10:26:25.000Z</time>
      </trkpt>
      <trkpt lat="43.37291" lon="5.41342">
        <ele>323.11</ele>
        <time>2021-11-14T10:26:29.000Z</time>
      </trkpt>
      <trkpt lat="43.37271" lon="5.41346">
        <ele>321.33</ele>
        <time>2021-11-14T10:26:33.000Z</time>
      </trkpt>
      <trkpt lat="43.37251" lon="5.41353">
        <ele>320.19</ele>
        <time>2021-11-14T10:26:37.000Z</time>
      </trkpt>
      <trkpt lat="43.3723" lon="5.41359">
        <ele>318.68</ele>
        <time>2021-11-14T10:26:41.000Z</time>
      </trkpt>
      <trkpt lat="43.37209" lon="5.41366">
        <ele>316.71</ele>
        <time>2021-11-14T10:26:45.000Z</time>
      </trkpt>
      <trkpt lat="43.37188" lon="5.41371">
        <ele>315.62</ele>
        <time>2021-11-14T10:26:49.000Z</time>
      </trkpt>
      <trkpt lat="43.37168" lon="5.41377">
        <ele>313.84</ele>
        <time>2021-11-14T10:26:53.000Z</time>
      </trkpt>
      <trkpt lat="43.37149" lon="5.41384">
        <ele>312.49</ele>
        <time>2021-11-14T10:26:57.000Z</time>
      </trkpt>
      <trkpt lat="43.37129" lon="5.41392">
        <ele>311.06</ele>
        <time>2021-11-14T10:27:01.000Z</time>
      </trkpt>
      <trkpt lat="43.37108" lon="5.41403">
        <ele>309.87</ele>
        <time>2021-11-14T10:27:05.000Z</time>
      </trkpt>
      <trkpt lat="43.37091" lon="5.41412">
        <ele>308.75</ele>
        <time>2021-11-14T10:27:08.000Z</time>
      </trkpt>
      <trkpt lat="43.3707" lon="5.41424">
        <ele>307.54</ele>
        <time>2021-11-14T10:27:12.000Z</time>
      </trkpt>
      <trkpt lat="43.37049" lon="5.41438">
        <ele>305.54</ele>
        <time>2021-11-14T10:27:16.000Z</time>
      </trkpt>
      <trkpt lat="43.37032" lon="5.41448">
        <ele>304.34</ele>
        <time>2021-11-14T10:27:19.000Z</time>
      </trkpt>
      <trkpt lat="43.37013" lon="5.41461">
        <ele>303.12</ele>
        <time>2021-11-14T10:27:23.000Z</time>
      </trkpt>
      <trkpt lat="43.36993" lon="5.41474">
        <ele>301.06</ele>
        <time>2021-11-14T10:27:27.000Z</time>
      </trkpt>
      <trkpt lat="43.36973" lon="5.41489">
        <ele>299.31</ele>
        <time>2021-11-14T10:27:31.000Z</time>
      </trkpt>
      <trkpt lat="43.36958" lon="5.41512">
        <ele>297.7</ele>
        <time>2021-11-14T10:27:35.000Z</time>
      </trkpt>
      <trkpt lat="43.36944" lon="5.41537">
        <ele>295.63</ele>
        <time>2021-11-14T10:27:39.000Z</time>
      </trkpt>
      <trkpt lat="43.36929" lon="5.41558">
        <ele>293.18</ele>
        <time>2021-11-14T10:27:43.000Z</time>
      </trkpt>
      <trkpt lat="43.36916" lon="5.41581">
        <ele>290.75</ele>
        <time>2021-11-14T10:27:47.000Z</time>
      </trkpt>
      <trkpt lat="43.36898" lon="5.41603">
        <ele>288.27</ele>
        <time>2021-11-14T10:27:51.000Z</time>
      </trkpt>
      <trkpt lat="43.36882" lon="5.41624">
        <ele>285.26</ele>
        <time>2021-11-14T10:27:55.000Z</time>
      </trkpt>
      <trkpt lat="43.36864" lon="5.41638">
        <ele>282.34</ele>
        <time>2021-11-14T10:27:59.000Z</time>
      </trkpt>
      <trkpt lat="43.36843" lon="5.41649">
        <ele>279.52</ele>
        <time>2021-11-14T10:28:04.000Z</time>
      </trkpt>
      <trkpt lat="43.36822" lon="5.41654">
        <ele>276.18</ele>
        <time>2021-11-14T10:28:08.000Z</time>
      </trkpt>
      <trkpt lat="43.36805" lon="5.41659">
        <ele>273.91</ele>
        <time>2021-11-14T10:28:11.000Z</time>
      </trkpt>
      <trkpt lat="43.36784" lon="5.4167">
        <ele>271.16</ele>
        <time>2021-11-14T10:28:15.000Z</time>
      </trkpt>
      <trkpt lat="43.36767" lon="5.41684">
        <ele>267.99</ele>
        <time>2021-11-14T10:28:19.000Z</time>
      </trkpt>
      <trkpt lat="43.36749" lon="5.41694">
        <ele>265.39</ele>
        <time>2021-11-14T10:28:24.000Z</time>
      </trkpt>
      <trkpt lat="43.36729" lon="5.41697">
        <ele>262.66</ele>
        <time>2021-11-14T10:28:29.000Z</time>
      </trkpt>
      <trkpt lat="43.36711" lon="5.41699">
        <ele>260.78</ele>
        <time>2021-11-14T10:28:33.000Z</time>
      </trkpt>
      <trkpt lat="43.36694" lon="5.4171">
        <ele>258.39</ele>
        <time>2021-11-14T10:28:37.000Z</time>
      </trkpt>
      <trkpt lat="43.36678" lon="5.4173">
        <ele>254.82</ele>
        <time>2021-11-14T10:28:41.000Z</time>
      </trkpt>
      <trkpt lat="43.36659" lon="5.41741">
        <ele>252.18</ele>
        <time>2021-11-14T10:28:45.000Z</time>
      </trkpt>
      <trkpt lat="43.36641" lon="5.41745">
        <ele>251.62</ele>
        <time>2021-11-14T10:28:49.000Z</time>
      </trkpt>
      <trkpt lat="43.3662" lon="5.41756">
        <ele>249.43</ele>
        <time>2021-11-14T10:28:53.000Z</time>
      </trkpt>
      <trkpt lat="43.366" lon="5.41773">
        <ele>246.7</ele>
        <time>2021-11-14T10:28:57.000Z</time>
      </trkpt>
      <trkpt lat="43.36582" lon="5.4179">
        <ele>244.13</ele>
        <time>2021-11-14T10:29:01.000Z</time>
      </trkpt>
      <trkpt lat="43.36565" lon="5.41807">
        <ele>242.88</ele>
        <time>2021-11-14T10:29:05.000Z</time>
      </trkpt>
      <trkpt lat="43.36549" lon="5.41819">
        <ele>245.82</ele>
        <time>2021-11-14T10:29:14.000Z</time>
      </trkpt>
      <trkpt lat="43.36531" lon="5.41827">
        <ele>249.02</ele>
        <time>2021-11-14T10:29:24.000Z</time>
      </trkpt>
      <trkpt lat="43.36514" lon="5.4184">
        <ele>252.56</ele>
        <time>2021-11-14T10:29:34.000Z</time>
      </trkpt>
      <trkpt lat="43.36494" lon="5.41845">
        <ele>254.42</ele>
        <time>2021-11-14T10:29:45.000Z</time>
      </trkpt>
      <trkpt lat="43.36475" lon="5.41847">
        <ele>256.24</ele>
        <time>2021-11-14T10:29:55.000Z</time>
      </trkpt>
      <trkpt lat="43.36462" lon="5.41865">
        <ele>258.19</ele>
        <time>2021-11-14T10:30:07.000Z</time>
      </trkpt>
      <trkpt lat="43.36463" lon="5.41891">
        <ele>260.74</ele>
        <time>2021-11-14T10:30:19.000Z</time>
      </trkpt>
      <trkpt lat="43.36474" lon="5.41911">
        <ele>263.94</ele>
        <time>2021-11-14T10:30:33.000Z</time>
      </trkpt>
      <trkpt lat="43.36491" lon="5.41924">
        <ele>267.1</ele>
        <time>2021-11-14T10:30:47.000Z</time>
      </trkpt>
      <trkpt lat="43.36508" lon="5.41934">
        <ele>269.39</ele>
        <time>2021-11-14T10:30:59.000Z</time>
      </trkpt>
      <trkpt lat="43.36525" lon="5.41943">
        <ele>271.94</ele>
        <time>2021-11-14T10:31:13.000Z</time>
      </trkpt>
      <trkpt lat="43.36538" lon="5.4196">
        <ele>273.98</ele>
        <time>2021-11-14T10:31:38.000Z</time>
      </trkpt>
      <trkpt lat="43.36553" lon="5.41976">
        <ele>275.47</ele>
        <time>2021-11-14T10:33:56.000Z</time>
      </trkpt>
      <trkpt lat="43.36568" lon="5.41993">
        <ele>276.5</ele>
        <time>2021-11-14T10:34:07.000Z</time>
      </trkpt>
      <trkpt lat="43.36583" lon="5.42009">
        <ele>277.35</ele>
        <time>2021-11-14T10:34:17.000Z</time>
      </trkpt>
      <trkpt lat="43.36599" lon="5.42021">
        <ele>278.09</ele>
        <time>2021-11-14T10:34:27.000Z</time>
      </trkpt>
      <trkpt lat="43.36614" lon="5.42037">
        <ele>278.35</ele>
        <time>2021-11-14T10:34:36.000Z</time>
      </trkpt>
      <trkpt lat="43.36629" lon="5.42054">
        <ele>277.77</ele>
        <time>2021-11-14T10:34:43.000Z</time>
      </trkpt>
      <trkpt lat="43.36647" lon="5.42071">
        <ele>276.81</ele>
        <time>2021-11-14T10:34:49.000Z</time>
      </trkpt>
      <trkpt lat="43.36663" lon="5.42083">
        <ele>275.75</ele>
        <time>2021-11-14T10:34:54.000Z</time>
      </trkpt>
      <trkpt lat="43.36684" lon="5.42095">
        <ele>273.88</ele>
        <time>2021-11-14T10:34:59.000Z</time>
      </trkpt>
      <trkpt lat="43.36705" lon="5.42094">
        <ele>273.3</ele>
        <time>2021-11-14T10:35:04.000Z</time>
      </trkpt>
      <trkpt lat="43.36723" lon="5.42086">
        <ele>274.99</ele>
        <time>2021-11-14T10:35:11.000Z</time>
      </trkpt>
      <trkpt lat="43.36742" lon="5.42078">
        <ele>276.74</ele>
        <time>2021-11-14T10:35:20.000Z</time>
      </trkpt>
      <trkpt lat="43.36761" lon="5.42076">
        <ele>277.86</ele>
        <time>2021-11-14T10:35:29.000Z</time>
      </trkpt>
      <trkpt lat="43.36775" lon="5.42094">
        <ele>277.57</ele>
        <time>2021-11-14T10:35:37.000Z</time>
      </trkpt>
      <trkpt lat="43.36788" lon="5.42112">
        <ele>277.01</ele>
        <time>2021-11-14T10:35:43.000Z</time>
      </trkpt>
      <trkpt lat="43.36798" lon="5.42134">
        <ele>275.26</ele>
        <time>2021-11-14T10:35:48.000Z</time>
      </trkpt>
      <trkpt lat="43.36812" lon="5.42153">
        <ele>271.74</ele>
        <time>2021-11-14T10:35:53.000Z</time>
      </trkpt>
      <trkpt lat="43.36826" lon="5.42172">
        <ele>268.11</ele>
        <time>2021-11-14T10:35:58.000Z</time>
      </trkpt>
      <trkpt lat="43.36843" lon="5.42187">
        <ele>264.01</ele>
        <time>2021-11-14T10:36:04.000Z</time>
      </trkpt>
      <trkpt lat="43.3686" lon="5.42177">
        <ele>259.37</ele>
        <time>2021-11-14T10:36:15.000Z</time>
      </trkpt>
      <trkpt lat="43.36862" lon="5.42203">
        <ele>257.19</ele>
        <time>2021-11-14T10:36:31.000Z</time>
      </trkpt>
      <trkpt lat="43.36845" lon="5.4222">
        <ele>256.67</ele>
        <time>2021-11-14T10:36:37.000Z</time>
      </trkpt>
      <trkpt lat="43.36827" lon="5.42219">
        <ele>256.08</ele>
        <time>2021-11-14T10:36:41.000Z</time>
      </trkpt>
      <trkpt lat="43.36807" lon="5.42212">
        <ele>254.48</ele>
        <time>2021-11-14T10:36:45.000Z</time>
      </trkpt>
      <trkpt lat="43.36788" lon="5.42209">
        <ele>254.07</ele>
        <time>2021-11-14T10:36:49.000Z</time>
      </trkpt>
      <trkpt lat="43.36769" lon="5.42206">
        <ele>252.82</ele>
        <time>2021-11-14T10:36:53.000Z</time>
      </trkpt>
      <trkpt lat="43.3675" lon="5.42199">
        <ele>251.7</ele>
        <time>2021-11-14T10:36:57.000Z</time>
      </trkpt>
      <trkpt lat="43.3673" lon="5.42205">
        <ele>250.88</ele>
        <time>2021-11-14T10:37:02.000Z</time>
      </trkpt>
      <trkpt lat="43.36709" lon="5.42203">
        <ele>250.02</ele>
        <time>2021-11-14T10:37:06.000Z</time>
      </trkpt>
      <trkpt lat="43.36686" lon="5.42198">
        <ele>248.33</ele>
        <time>2021-11-14T10:37:10.000Z</time>
      </trkpt>
      <trkpt lat="43.36665" lon="5.42196">
        <ele>247.35</ele>
        <time>2021-11-14T10:37:14.000Z</time>
      </trkpt>
      <trkpt lat="43.36643" lon="5.42207">
        <ele>246.32</ele>
        <time>2021-11-14T10:37:18.000Z</time>
      </trkpt>
      <trkpt lat="43.36629" lon="5.42234">
        <ele>245.08</ele>
        <time>2021-11-14T10:37:22.000Z</time>
      </trkpt>
      <trkpt lat="43.3661" lon="5.4225">
        <ele>244.04</ele>
        <time>2021-11-14T10:37:26.000Z</time>
      </trkpt>
      <trkpt lat="43.36592" lon="5.42253">
        <ele>243.13</ele>
        <time>2021-11-14T10:37:29.000Z</time>
      </trkpt>
      <trkpt lat="43.36572" lon="5.42259">
        <ele>242.8</ele>
        <time>2021-11-14T10:37:33.000Z</time>
      </trkpt>
      <trkpt lat="43.36554" lon="5.42263">
        <ele>245.36</ele>
        <time>2021-11-14T10:37:44.000Z</time>
      </trkpt>
      <trkpt lat="43.36535" lon="5.42267">
        <ele>248</ele>
        <time>2021-11-14T10:37:55.000Z</time>
      </trkpt>
      <trkpt lat="43.36517" lon="5.42277">
        <ele>249.66</ele>
        <time>2021-11-14T10:38:06.000Z</time>
      </trkpt>
      <trkpt lat="43.36501" lon="5.42291">
        <ele>250.1</ele>
        <time>2021-11-14T10:38:15.000Z</time>
      </trkpt>
      <trkpt lat="43.36483" lon="5.42303">
        <ele>250.95</ele>
        <time>2021-11-14T10:38:23.000Z</time>
      </trkpt>
      <trkpt lat="43.36465" lon="5.42307">
        <ele>252.17</ele>
        <time>2021-11-14T10:38:32.000Z</time>
      </trkpt>
      <trkpt lat="43.36446" lon="5.42306">
        <ele>253.72</ele>
        <time>2021-11-14T10:38:41.000Z</time>
      </trkpt>
      <trkpt lat="43.36427" lon="5.42302">
        <ele>254.63</ele>
        <time>2021-11-14T10:38:51.000Z</time>
      </trkpt>
      <trkpt lat="43.36409" lon="5.42305">
        <ele>255.53</ele>
        <time>2021-11-14T10:39:00.000Z</time>
      </trkpt>
      <trkpt lat="43.36392" lon="5.42315">
        <ele>255.78</ele>
        <time>2021-11-14T10:39:09.000Z</time>
      </trkpt>
      <trkpt lat="43.36374" lon="5.42326">
        <ele>257.24</ele>
        <time>2021-11-14T10:39:19.000Z</time>
      </trkpt>
      <trkpt lat="43.36357" lon="5.42337">
        <ele>258.4</ele>
        <time>2021-11-14T10:39:30.000Z</time>
      </trkpt>
      <trkpt lat="43.36369" lon="5.42358">
        <ele>260.62</ele>
        <time>2021-11-14T10:39:45.000Z</time>
      </trkpt>
      <trkpt lat="43.3635" lon="5.42354">
        <ele>260.64</ele>
        <time>2021-11-14T10:42:49.000Z</time>
      </trkpt>
      <trkpt lat="43.36332" lon="5.42353">
        <ele>259.62</ele>
        <time>2021-11-14T10:42:57.000Z</time>
      </trkpt>
      <trkpt lat="43.36319" lon="5.42374">
        <ele>259.63</ele>
        <time>2021-11-14T10:43:07.000Z</time>
      </trkpt>
      <trkpt lat="43.36313" lon="5.42398">
        <ele>259.56</ele>
        <time>2021-11-14T10:43:16.000Z</time>
      </trkpt>
      <trkpt lat="43.3632" lon="5.42422">
        <ele>260.77</ele>
        <time>2021-11-14T10:43:25.000Z</time>
      </trkpt>
      <trkpt lat="43.3633" lon="5.42446">
        <ele>261.61</ele>
        <time>2021-11-14T10:43:33.000Z</time>
      </trkpt>
      <trkpt lat="43.36344" lon="5.42465">
        <ele>263.2</ele>
        <time>2021-11-14T10:43:42.000Z</time>
      </trkpt>
      <trkpt lat="43.36358" lon="5.42481">
        <ele>265.36</ele>
        <time>2021-11-14T10:43:51.000Z</time>
      </trkpt>
      <trkpt lat="43.36374" lon="5.42495">
        <ele>266.86</ele>
        <time>2021-11-14T10:44:00.000Z</time>
      </trkpt>
      <trkpt lat="43.3639" lon="5.42508">
        <ele>268.08</ele>
        <time>2021-11-14T10:44:09.000Z</time>
      </trkpt>
      <trkpt lat="43.36403" lon="5.42526">
        <ele>269.31</ele>
        <time>2021-11-14T10:44:18.000Z</time>
      </trkpt>
      <trkpt lat="43.36414" lon="5.42547">
        <ele>270.21</ele>
        <time>2021-11-14T10:44:27.000Z</time>
      </trkpt>
      <trkpt lat="43.36425" lon="5.4257">
        <ele>270.73</ele>
        <time>2021-11-14T10:44:36.000Z</time>
      </trkpt>
      <trkpt lat="43.36435" lon="5.42591">
        <ele>271</ele>
        <time>2021-11-14T10:44:44.000Z</time>
      </trkpt>
      <trkpt lat="43.36444" lon="5.42615">
        <ele>271.02</ele>
        <time>2021-11-14T10:44:51.000Z</time>
      </trkpt>
      <trkpt lat="43.36451" lon="5.42638">
        <ele>270.59</ele>
        <time>2021-11-14T10:44:57.000Z</time>
      </trkpt>
      <trkpt lat="43.36455" lon="5.42664">
        <ele>270.09</ele>
        <time>2021-11-14T10:45:03.000Z</time>
      </trkpt>
      <trkpt lat="43.36458" lon="5.42693">
        <ele>269.77</ele>
        <time>2021-11-14T10:45:09.000Z</time>
      </trkpt>
      <trkpt lat="43.36458" lon="5.42722">
        <ele>269.35</ele>
        <time>2021-11-14T10:45:15.000Z</time>
      </trkpt>
      <trkpt lat="43.3646" lon="5.42748">
        <ele>269</ele>
        <time>2021-11-14T10:45:20.000Z</time>
      </trkpt>
      <trkpt lat="43.36464" lon="5.42776">
        <ele>268.89</ele>
        <time>2021-11-14T10:45:26.000Z</time>
      </trkpt>
      <trkpt lat="43.3647" lon="5.42802">
        <ele>268.9</ele>
        <time>2021-11-14T10:45:32.000Z</time>
      </trkpt>
      <trkpt lat="43.36476" lon="5.42827">
        <ele>269.56</ele>
        <time>2021-11-14T10:45:38.000Z</time>
      </trkpt>
      <trkpt lat="43.36492" lon="5.4284">
        <ele>271.43</ele>
        <time>2021-11-14T10:45:47.000Z</time>
      </trkpt>
      <trkpt lat="43.36509" lon="5.42829">
        <ele>273.87</ele>
        <time>2021-11-14T10:45:58.000Z</time>
      </trkpt>
      <trkpt lat="43.36528" lon="5.4283">
        <ele>277.25</ele>
        <time>2021-11-14T10:46:12.000Z</time>
      </trkpt>
      <trkpt lat="43.36546" lon="5.42837">
        <ele>280.22</ele>
        <time>2021-11-14T10:46:26.000Z</time>
      </trkpt>
      <trkpt lat="43.36565" lon="5.42838">
        <ele>282.96</ele>
        <time>2021-11-14T10:46:40.000Z</time>
      </trkpt>
      <trkpt lat="43.36584" lon="5.42836">
        <ele>285.72</ele>
        <time>2021-11-14T10:46:53.000Z</time>
      </trkpt>
      <trkpt lat="43.36602" lon="5.42834">
        <ele>287.88</ele>
        <time>2021-11-14T10:47:07.000Z</time>
      </trkpt>
      <trkpt lat="43.36621" lon="5.42829">
        <ele>290.13</ele>
        <time>2021-11-14T10:47:21.000Z</time>
      </trkpt>
      <trkpt lat="43.36637" lon="5.4282">
        <ele>292.41</ele>
        <time>2021-11-14T10:49:34.000Z</time>
      </trkpt>
      <trkpt lat="43.36655" lon="5.4281">
        <ele>293.47</ele>
        <time>2021-11-14T10:49:45.000Z</time>
      </trkpt>
      <trkpt lat="43.36673" lon="5.42799">
        <ele>294.1</ele>
        <time>2021-11-14T10:49:53.000Z</time>
      </trkpt>
      <trkpt lat="43.36694" lon="5.428">
        <ele>294.79</ele>
        <time>2021-11-14T10:50:02.000Z</time>
      </trkpt>
      <trkpt lat="43.36714" lon="5.42808">
        <ele>294.86</ele>
        <time>2021-11-14T10:50:09.000Z</time>
      </trkpt>
      <trkpt lat="43.36733" lon="5.42817">
        <ele>294.97</ele>
        <time>2021-11-14T10:50:15.000Z</time>
      </trkpt>
      <trkpt lat="43.36751" lon="5.42823">
        <ele>294.95</ele>
        <time>2021-11-14T10:50:21.000Z</time>
      </trkpt>
      <trkpt lat="43.36771" lon="5.42828">
        <ele>295.16</ele>
        <time>2021-11-14T10:50:27.000Z</time>
      </trkpt>
      <trkpt lat="43.36791" lon="5.42835">
        <ele>295.4</ele>
        <time>2021-11-14T10:50:33.000Z</time>
      </trkpt>
      <trkpt lat="43.36809" lon="5.42845">
        <ele>295.91</ele>
        <time>2021-11-14T10:50:39.000Z</time>
      </trkpt>
      <trkpt lat="43.36826" lon="5.42853">
        <ele>297.04</ele>
        <time>2021-11-14T10:50:45.000Z</time>
      </trkpt>
      <trkpt lat="43.36843" lon="5.42868">
        <ele>297.63</ele>
        <time>2021-11-14T10:50:52.000Z</time>
      </trkpt>
      <trkpt lat="43.36861" lon="5.4288">
        <ele>297.69</ele>
        <time>2021-11-14T10:50:58.000Z</time>
      </trkpt>
      <trkpt lat="43.36878" lon="5.42892">
        <ele>296.69</ele>
        <time>2021-11-14T10:51:03.000Z</time>
      </trkpt>
      <trkpt lat="43.36898" lon="5.42905">
        <ele>295.71</ele>
        <time>2021-11-14T10:51:07.000Z</time>
      </trkpt>
      <trkpt lat="43.36915" lon="5.42925">
        <ele>293.6</ele>
        <time>2021-11-14T10:51:11.000Z</time>
      </trkpt>
      <trkpt lat="43.36929" lon="5.42949">
        <ele>291.19</ele>
        <time>2021-11-14T10:51:15.000Z</time>
      </trkpt>
      <trkpt lat="43.36941" lon="5.42977">
        <ele>288.85</ele>
        <time>2021-11-14T10:51:18.000Z</time>
      </trkpt>
      <trkpt lat="43.36953" lon="5.43002">
        <ele>288.32</ele>
        <time>2021-11-14T10:51:21.000Z</time>
      </trkpt>
      <trkpt lat="43.36967" lon="5.43022">
        <ele>288.65</ele>
        <time>2021-11-14T10:51:25.000Z</time>
      </trkpt>
      <trkpt lat="43.36983" lon="5.43038">
        <ele>286.63</ele>
        <time>2021-11-14T10:51:29.000Z</time>
      </trkpt>
      <trkpt lat="43.36984" lon="5.43067">
        <ele>285.62</ele>
        <time>2021-11-14T10:51:33.000Z</time>
      </trkpt>
      <trkpt lat="43.36979" lon="5.43093">
        <ele>287.95</ele>
        <time>2021-11-14T10:51:40.000Z</time>
      </trkpt>
      <trkpt lat="43.36961" lon="5.43093">
        <ele>284.9</ele>
        <time>2021-11-14T10:51:52.000Z</time>
      </trkpt>
      <trkpt lat="43.36971" lon="5.43118">
        <ele>281.99</ele>
        <time>2021-11-14T10:52:08.000Z</time>
      </trkpt>
      <trkpt lat="43.36988" lon="5.43129">
        <ele>281.82</ele>
        <time>2021-11-14T10:52:16.000Z</time>
      </trkpt>
      <trkpt lat="43.37009" lon="5.43131">
        <ele>281.92</ele>
        <time>2021-11-14T10:52:23.000Z</time>
      </trkpt>
      <trkpt lat="43.37029" lon="5.43141">
        <ele>281.84</ele>
        <time>2021-11-14T10:52:30.000Z</time>
      </trkpt>
      <trkpt lat="43.3704" lon="5.43165">
        <ele>281.76</ele>
        <time>2021-11-14T10:52:36.000Z</time>
      </trkpt>
      <trkpt lat="43.37046" lon="5.43192">
        <ele>281.83</ele>
        <time>2021-11-14T10:52:42.000Z</time>
      </trkpt>
      <trkpt lat="43.37046" lon="5.43218">
        <ele>281.93</ele>
        <time>2021-11-14T10:52:48.000Z</time>
      </trkpt>
      <trkpt lat="43.37035" lon="5.43196">
        <ele>282.06</ele>
        <time>2021-11-14T10:53:02.000Z</time>
      </trkpt>
      <trkpt lat="43.37025" lon="5.43174">
        <ele>282.01</ele>
        <time>2021-11-14T10:53:11.000Z</time>
      </trkpt>
      <trkpt lat="43.37007" lon="5.43172">
        <ele>282.11</ele>
        <time>2021-11-14T10:53:19.000Z</time>
      </trkpt>
      <trkpt lat="43.36989" lon="5.4318">
        <ele>281.85</ele>
        <time>2021-11-14T10:53:25.000Z</time>
      </trkpt>
      <trkpt lat="43.36971" lon="5.43181">
        <ele>282.03</ele>
        <time>2021-11-14T10:53:31.000Z</time>
      </trkpt>
      <trkpt lat="43.36952" lon="5.43179">
        <ele>282.01</ele>
        <time>2021-11-14T10:53:37.000Z</time>
      </trkpt>
      <trkpt lat="43.36934" lon="5.43172">
        <ele>281.97</ele>
        <time>2021-11-14T10:53:43.000Z</time>
      </trkpt>
      <trkpt lat="43.36915" lon="5.43164">
        <ele>281.72</ele>
        <time>2021-11-14T10:53:50.000Z</time>
      </trkpt>
      <trkpt lat="43.36898" lon="5.43174">
        <ele>281.74</ele>
        <time>2021-11-14T10:53:58.000Z</time>
      </trkpt>
      <trkpt lat="43.36882" lon="5.43192">
        <ele>281.84</ele>
        <time>2021-11-14T10:54:06.000Z</time>
      </trkpt>
      <trkpt lat="43.36866" lon="5.43207">
        <ele>281.98</ele>
        <time>2021-11-14T10:54:14.000Z</time>
      </trkpt>
      <trkpt lat="43.36848" lon="5.43214">
        <ele>281.89</ele>
        <time>2021-11-14T10:54:27.000Z</time>
      </trkpt>
      <trkpt lat="43.3683" lon="5.43214">
        <ele>281.81</ele>
        <time>2021-11-14T10:54:37.000Z</time>
      </trkpt>
      <trkpt lat="43.36811" lon="5.43211">
        <ele>281.69</ele>
        <time>2021-11-14T10:54:44.000Z</time>
      </trkpt>
      <trkpt lat="43.36793" lon="5.43202">
        <ele>281.87</ele>
        <time>2021-11-14T10:54:53.000Z</time>
      </trkpt>
      <trkpt lat="43.36774" lon="5.43191">
        <ele>282.07</ele>
        <time>2021-11-14T10:55:02.000Z</time>
      </trkpt>
      <trkpt lat="43.36757" lon="5.43186">
        <ele>281.85</ele>
        <time>2021-11-14T10:55:10.000Z</time>
      </trkpt>
      <trkpt lat="43.36738" lon="5.4319">
        <ele>281.86</ele>
        <time>2021-11-14T10:55:18.000Z</time>
      </trkpt>
      <trkpt lat="43.36722" lon="5.43203">
        <ele>281.88</ele>
        <time>2021-11-14T10:55:26.000Z</time>
      </trkpt>
      <trkpt lat="43.36702" lon="5.43211">
        <ele>281.3</ele>
        <time>2021-11-14T10:56:19.000Z</time>
      </trkpt>
      <trkpt lat="43.36684" lon="5.43215">
        <ele>279.82</ele>
        <time>2021-11-14T10:56:28.000Z</time>
      </trkpt>
      <trkpt lat="43.36666" lon="5.43226">
        <ele>277.34</ele>
        <time>2021-11-14T10:56:38.000Z</time>
      </trkpt>
      <trkpt lat="43.36647" lon="5.43235">
        <ele>274.06</ele>
        <time>2021-11-14T10:56:48.000Z</time>
      </trkpt>
      <trkpt lat="43.36628" lon="5.43237">
        <ele>271.97</ele>
        <time>2021-11-14T10:57:24.000Z</time>
      </trkpt>
      <trkpt lat="43.36609" lon="5.43236">
        <ele>270.3</ele>
        <time>2021-11-14T10:57:32.000Z</time>
      </trkpt>
      <trkpt lat="43.36589" lon="5.43238">
        <ele>268.34</ele>
        <time>2021-11-14T10:57:40.000Z</time>
      </trkpt>
      <trkpt lat="43.36569" lon="5.43238">
        <ele>266.15</ele>
        <time>2021-11-14T10:57:48.000Z</time>
      </trkpt>
      <trkpt lat="43.36551" lon="5.4324">
        <ele>264.14</ele>
        <time>2021-11-14T10:57:55.000Z</time>
      </trkpt>
      <trkpt lat="43.36532" lon="5.43239">
        <ele>262.17</ele>
        <time>2021-11-14T10:58:03.000Z</time>
      </trkpt>
      <trkpt lat="43.36538" lon="5.43263">
        <ele>259.41</ele>
        <time>2021-11-14T10:58:17.000Z</time>
      </trkpt>
      <trkpt lat="43.3655" lon="5.43282">
        <ele>257.81</ele>
        <time>2021-11-14T10:58:25.000Z</time>
      </trkpt>
      <trkpt lat="43.36548" lon="5.43308">
        <ele>257.1</ele>
        <time>2021-11-14T10:58:33.000Z</time>
      </trkpt>
      <trkpt lat="43.36535" lon="5.43326">
        <ele>256.9</ele>
        <time>2021-11-14T10:58:39.000Z</time>
      </trkpt>
      <trkpt lat="43.36529" lon="5.4335">
        <ele>256.97</ele>
        <time>2021-11-14T10:58:47.000Z</time>
      </trkpt>
      <trkpt lat="43.36521" lon="5.43376">
        <ele>256.98</ele>
        <time>2021-11-14T10:58:56.000Z</time>
      </trkpt>
      <trkpt lat="43.36513" lon="5.43402">
        <ele>257.09</ele>
        <time>2021-11-14T10:59:04.000Z</time>
      </trkpt>
      <trkpt lat="43.36499" lon="5.43418">
        <ele>254.51</ele>
        <time>2021-11-14T10:59:29.000Z</time>
      </trkpt>
      <trkpt lat="43.36495" lon="5.43392">
        <ele>252.13</ele>
        <time>2021-11-14T10:59:40.000Z</time>
      </trkpt>
      <trkpt lat="43.36503" lon="5.43365">
        <ele>249.99</ele>
        <time>2021-11-14T10:59:47.000Z</time>
      </trkpt>
      <trkpt lat="43.36511" lon="5.43339">
        <ele>247.34</ele>
        <time>2021-11-14T10:59:54.000Z</time>
      </trkpt>
      <trkpt lat="43.36514" lon="5.43313">
        <ele>245.3</ele>
        <time>2021-11-14T11:00:01.000Z</time>
      </trkpt>
      <trkpt lat="43.36506" lon="5.43288">
        <ele>243.17</ele>
        <time>2021-11-14T11:00:09.000Z</time>
      </trkpt>
      <trkpt lat="43.36487" lon="5.43278">
        <ele>241.59</ele>
        <time>2021-11-14T11:00:16.000Z</time>
      </trkpt>
      <trkpt lat="43.36468" lon="5.43274">
        <ele>240.02</ele>
        <time>2021-11-14T11:00:24.000Z</time>
      </trkpt>
      <trkpt lat="43.36448" lon="5.43271">
        <ele>238.08</ele>
        <time>2021-11-14T11:00:33.000Z</time>
      </trkpt>
      <trkpt lat="43.36464" lon="5.43286">
        <ele>235.91</ele>
        <time>2021-11-14T11:00:47.000Z</time>
      </trkpt>
      <trkpt lat="43.3648" lon="5.43299">
        <ele>234.25</ele>
        <time>2021-11-14T11:00:55.000Z</time>
      </trkpt>
      <trkpt lat="43.36461" lon="5.43303">
        <ele>230.55</ele>
        <time>2021-11-14T11:01:12.000Z</time>
      </trkpt>
      <trkpt lat="43.36441" lon="5.43306">
        <ele>228.3</ele>
        <time>2021-11-14T11:01:20.000Z</time>
      </trkpt>
      <trkpt lat="43.36421" lon="5.43308">
        <ele>225.69</ele>
        <time>2021-11-14T11:01:28.000Z</time>
      </trkpt>
      <trkpt lat="43.36403" lon="5.43313">
        <ele>222.77</ele>
        <time>2021-11-14T11:01:37.000Z</time>
      </trkpt>
      <trkpt lat="43.36385" lon="5.43317">
        <ele>220.15</ele>
        <time>2021-11-14T11:01:45.000Z</time>
      </trkpt>
      <trkpt lat="43.36403" lon="5.43325">
        <ele>218.71</ele>
        <time>2021-11-14T11:01:58.000Z</time>
      </trkpt>
      <trkpt lat="43.36421" lon="5.43327">
        <ele>218.66</ele>
        <time>2021-11-14T11:02:04.000Z</time>
      </trkpt>
      <trkpt lat="43.36411" lon="5.43347">
        <ele>218.44</ele>
        <time>2021-11-14T11:02:14.000Z</time>
      </trkpt>
      <trkpt lat="43.36396" lon="5.43365">
        <ele>218.56</ele>
        <time>2021-11-14T11:02:22.000Z</time>
      </trkpt>
      <trkpt lat="43.36385" lon="5.43386">
        <ele>218.56</ele>
        <time>2021-11-14T11:02:30.000Z</time>
      </trkpt>
      <trkpt lat="43.36374" lon="5.43405">
        <ele>218.39</ele>
        <time>2021-11-14T11:02:39.000Z</time>
      </trkpt>
      <trkpt lat="43.36361" lon="5.43423">
        <ele>218.55</ele>
        <time>2021-11-14T11:02:48.000Z</time>
      </trkpt>
      <trkpt lat="43.36358" lon="5.4345">
        <ele>218.48</ele>
        <time>2021-11-14T11:02:55.000Z</time>
      </trkpt>
      <trkpt lat="43.36358" lon="5.43478">
        <ele>218.55</ele>
        <time>2021-11-14T11:03:04.000Z</time>
      </trkpt>
      <trkpt lat="43.36361" lon="5.43504">
        <ele>218.58</ele>
        <time>2021-11-14T11:03:12.000Z</time>
      </trkpt>
      <trkpt lat="43.36376" lon="5.43521">
        <ele>218.61</ele>
        <time>2021-11-14T11:03:20.000Z</time>
      </trkpt>
      <trkpt lat="43.36387" lon="5.43544">
        <ele>218.55</ele>
        <time>2021-11-14T11:03:29.000Z</time>
      </trkpt>
      <trkpt lat="43.36381" lon="5.43568">
        <ele>218.57</ele>
        <time>2021-11-14T11:03:36.000Z</time>
      </trkpt>
      <trkpt lat="43.36385" lon="5.43593">
        <ele>218.77</ele>
        <time>2021-11-14T11:03:43.000Z</time>
      </trkpt>
      <trkpt lat="43.36393" lon="5.43617">
        <ele>218.76</ele>
        <time>2021-11-14T11:03:50.000Z</time>
      </trkpt>
      <trkpt lat="43.36407" lon="5.43635">
        <ele>218.69</ele>
        <time>2021-11-14T11:03:57.000Z</time>
      </trkpt>
      <trkpt lat="43.36391" lon="5.43649">
        <ele>218.83</ele>
        <time>2021-11-14T11:04:38.000Z</time>
      </trkpt>
      <trkpt lat="43.36372" lon="5.43642">
        <ele>218.71</ele>
        <time>2021-11-14T11:04:46.000Z</time>
      </trkpt>
      <trkpt lat="43.36356" lon="5.4363">
        <ele>218.72</ele>
        <time>2021-11-14T11:04:53.000Z</time>
      </trkpt>
      <trkpt lat="43.3634" lon="5.43616">
        <ele>218.64</ele>
        <time>2021-11-14T11:05:01.000Z</time>
      </trkpt>
      <trkpt lat="43.36323" lon="5.43605">
        <ele>218.79</ele>
        <time>2021-11-14T11:05:08.000Z</time>
      </trkpt>
      <trkpt lat="43.36306" lon="5.43592">
        <ele>218.58</ele>
        <time>2021-11-14T11:05:16.000Z</time>
      </trkpt>
      <trkpt lat="43.36288" lon="5.43586">
        <ele>218.59</ele>
        <time>2021-11-14T11:05:23.000Z</time>
      </trkpt>
      <trkpt lat="43.36269" lon="5.43583">
        <ele>218.44</ele>
        <time>2021-11-14T11:05:33.000Z</time>
      </trkpt>
      <trkpt lat="43.3625" lon="5.43572">
        <ele>216.69</ele>
        <time>2021-11-14T11:05:42.000Z</time>
      </trkpt>
      <trkpt lat="43.36233" lon="5.43561">
        <ele>215</ele>
        <time>2021-11-14T11:05:49.000Z</time>
      </trkpt>
      <trkpt lat="43.36216" lon="5.4355">
        <ele>212.52</ele>
        <time>2021-11-14T11:05:57.000Z</time>
      </trkpt>
      <trkpt lat="43.36196" lon="5.43547">
        <ele>210.69</ele>
        <time>2021-11-14T11:06:06.000Z</time>
      </trkpt>
      <trkpt lat="43.36178" lon="5.43549">
        <ele>209.72</ele>
        <time>2021-11-14T11:06:14.000Z</time>
      </trkpt>
      <trkpt lat="43.36159" lon="5.43553">
        <ele>208.77</ele>
        <time>2021-11-14T11:06:22.000Z</time>
      </trkpt>
      <trkpt lat="43.3614" lon="5.4356">
        <ele>207.86</ele>
        <time>2021-11-14T11:06:31.000Z</time>
      </trkpt>
      <trkpt lat="43.36122" lon="5.43558">
        <ele>205.85</ele>
        <time>2021-11-14T11:06:49.000Z</time>
      </trkpt>
      <trkpt lat="43.36102" lon="5.43559">
        <ele>205.06</ele>
        <time>2021-11-14T11:07:01.000Z</time>
      </trkpt>
      <trkpt lat="43.36083" lon="5.4356">
        <ele>204.36</ele>
        <time>2021-11-14T11:07:12.000Z</time>
      </trkpt>
      <trkpt lat="43.36066" lon="5.43571">
        <ele>200.77</ele>
        <time>2021-11-14T11:07:29.000Z</time>
      </trkpt>
      <trkpt lat="43.36048" lon="5.43581">
        <ele>196.48</ele>
        <time>2021-11-14T11:07:40.000Z</time>
      </trkpt>
      <trkpt lat="43.36029" lon="5.43586">
        <ele>194.89</ele>
        <time>2021-11-14T11:07:50.000Z</time>
      </trkpt>
      <trkpt lat="43.36011" lon="5.43591">
        <ele>195.96</ele>
        <time>2021-11-14T11:08:05.000Z</time>
      </trkpt>
      <trkpt lat="43.35993" lon="5.4359">
        <ele>194.96</ele>
        <time>2021-11-14T11:08:19.000Z</time>
      </trkpt>
      <trkpt lat="43.35975" lon="5.43585">
        <ele>194.42</ele>
        <time>2021-11-14T11:08:25.000Z</time>
      </trkpt>
      <trkpt lat="43.35956" lon="5.43586">
        <ele>194.08</ele>
        <time>2021-11-14T11:08:32.000Z</time>
      </trkpt>
      <trkpt lat="43.35938" lon="5.43585">
        <ele>193.81</ele>
        <time>2021-11-14T11:08:38.000Z</time>
      </trkpt>
      <trkpt lat="43.35922" lon="5.43572">
        <ele>192.35</ele>
        <time>2021-11-14T11:09:06.000Z</time>
      </trkpt>
      <trkpt lat="43.35906" lon="5.43583">
        <ele>189.98</ele>
        <time>2021-11-14T11:10:23.000Z</time>
      </trkpt>
      <trkpt lat="43.35895" lon="5.43563">
        <ele>181.57</ele>
        <time>2021-11-14T11:11:28.000Z</time>
      </trkpt>
      <trkpt lat="43.35877" lon="5.43568">
        <ele>177</ele>
        <time>2021-11-14T11:11:52.000Z</time>
      </trkpt>
      <trkpt lat="43.35859" lon="5.43561">
        <ele>169.53</ele>
        <time>2021-11-14T11:12:22.000Z</time>
      </trkpt>
      <trkpt lat="43.35845" lon="5.43546">
        <ele>166.26</ele>
        <time>2021-11-14T11:14:10.000Z</time>
      </trkpt>
      <trkpt lat="43.35849" lon="5.43518">
        <ele>165.38</ele>
        <time>2021-11-14T11:14:17.000Z</time>
      </trkpt>
      <trkpt lat="43.35861" lon="5.43497">
        <ele>163.99</ele>
        <time>2021-11-14T11:14:22.000Z</time>
      </trkpt>
      <trkpt lat="43.35873" lon="5.43476">
        <ele>163.04</ele>
        <time>2021-11-14T11:14:26.000Z</time>
      </trkpt>
      <trkpt lat="43.35883" lon="5.43455">
        <ele>162.93</ele>
        <time>2021-11-14T11:14:30.000Z</time>
      </trkpt>
      <trkpt lat="43.35895" lon="5.43435">
        <ele>164.02</ele>
        <time>2021-11-14T11:14:37.000Z</time>
      </trkpt>
      <trkpt lat="43.35892" lon="5.43411">
        <ele>163.57</ele>
        <time>2021-11-14T11:14:44.000Z</time>
      </trkpt>
      <trkpt lat="43.35877" lon="5.4339">
        <ele>162.18</ele>
        <time>2021-11-14T11:14:48.000Z</time>
      </trkpt>
      <trkpt lat="43.35859" lon="5.43379">
        <ele>160.76</ele>
        <time>2021-11-14T11:14:57.000Z</time>
      </trkpt>
      <trkpt lat="43.35841" lon="5.43393">
        <ele>159.59</ele>
        <time>2021-11-14T11:15:02.000Z</time>
      </trkpt>
      <trkpt lat="43.35821" lon="5.43404">
        <ele>158.41</ele>
        <time>2021-11-14T11:15:06.000Z</time>
      </trkpt>
      <trkpt lat="43.35801" lon="5.43416">
        <ele>157.44</ele>
        <time>2021-11-14T11:15:10.000Z</time>
      </trkpt>
      <trkpt lat="43.35783" lon="5.43423">
        <ele>156.95</ele>
        <time>2021-11-14T11:15:13.000Z</time>
      </trkpt>
      <trkpt lat="43.35765" lon="5.43429">
        <ele>156.35</ele>
        <time>2021-11-14T11:15:16.000Z</time>
      </trkpt>
      <trkpt lat="43.35746" lon="5.43432">
        <ele>155.57</ele>
        <time>2021-11-14T11:15:19.000Z</time>
      </trkpt>
      <trkpt lat="43.35725" lon="5.4343">
        <ele>154.73</ele>
        <time>2021-11-14T11:15:22.000Z</time>
      </trkpt>
      <trkpt lat="43.35704" lon="5.43426">
        <ele>153.96</ele>
        <time>2021-11-14T11:15:25.000Z</time>
      </trkpt>
      <trkpt lat="43.35682" lon="5.43424">
        <ele>153.27</ele>
        <time>2021-11-14T11:15:28.000Z</time>
      </trkpt>
      <trkpt lat="43.35661" lon="5.43425">
        <ele>152.65</ele>
        <time>2021-11-14T11:15:31.000Z</time>
      </trkpt>
      <trkpt lat="43.3564" lon="5.43427">
        <ele>151.88</ele>
        <time>2021-11-14T11:15:34.000Z</time>
      </trkpt>
      <trkpt lat="43.35617" lon="5.43432">
        <ele>151.04</ele>
        <time>2021-11-14T11:15:37.000Z</time>
      </trkpt>
      <trkpt lat="43.35597" lon="5.43438">
        <ele>150.18</ele>
        <time>2021-11-14T11:15:40.000Z</time>
      </trkpt>
      <trkpt lat="43.35574" lon="5.4345">
        <ele>149.49</ele>
        <time>2021-11-14T11:15:43.000Z</time>
      </trkpt>
      <trkpt lat="43.35554" lon="5.43458">
        <ele>149.06</ele>
        <time>2021-11-14T11:15:46.000Z</time>
      </trkpt>
      <trkpt lat="43.35535" lon="5.43465">
        <ele>148.39</ele>
        <time>2021-11-14T11:15:49.000Z</time>
      </trkpt>
      <trkpt lat="43.35515" lon="5.43473">
        <ele>147.73</ele>
        <time>2021-11-14T11:15:52.000Z</time>
      </trkpt>
      <trkpt lat="43.35494" lon="5.43483">
        <ele>146.93</ele>
        <time>2021-11-14T11:15:55.000Z</time>
      </trkpt>
      <trkpt lat="43.35474" lon="5.43494">
        <ele>146.09</ele>
        <time>2021-11-14T11:15:58.000Z</time>
      </trkpt>
      <trkpt lat="43.35455" lon="5.43506">
        <ele>145.47</ele>
        <time>2021-11-14T11:16:01.000Z</time>
      </trkpt>
      <trkpt lat="43.35437" lon="5.4352">
        <ele>144.83</ele>
        <time>2021-11-14T11:16:04.000Z</time>
      </trkpt>
      <trkpt lat="43.35417" lon="5.43536">
        <ele>144.01</ele>
        <time>2021-11-14T11:16:07.000Z</time>
      </trkpt>
      <trkpt lat="43.35403" lon="5.4356">
        <ele>143.24</ele>
        <time>2021-11-14T11:16:10.000Z</time>
      </trkpt>
      <trkpt lat="43.35388" lon="5.43582">
        <ele>142.45</ele>
        <time>2021-11-14T11:16:13.000Z</time>
      </trkpt>
      <trkpt lat="43.35374" lon="5.43602">
        <ele>141.83</ele>
        <time>2021-11-14T11:16:16.000Z</time>
      </trkpt>
      <trkpt lat="43.35359" lon="5.43624">
        <ele>141.55</ele>
        <time>2021-11-14T11:16:19.000Z</time>
      </trkpt>
      <trkpt lat="43.35339" lon="5.43633">
        <ele>140.88</ele>
        <time>2021-11-14T11:16:22.000Z</time>
      </trkpt>
      <trkpt lat="43.35318" lon="5.43636">
        <ele>140.47</ele>
        <time>2021-11-14T11:16:25.000Z</time>
      </trkpt>
      <trkpt lat="43.35298" lon="5.43638">
        <ele>139.81</ele>
        <time>2021-11-14T11:16:28.000Z</time>
      </trkpt>
      <trkpt lat="43.35278" lon="5.43641">
        <ele>139.3</ele>
        <time>2021-11-14T11:16:31.000Z</time>
      </trkpt>
      <trkpt lat="43.35256" lon="5.43643">
        <ele>139.12</ele>
        <time>2021-11-14T11:16:34.000Z</time>
      </trkpt>
      <trkpt lat="43.35238" lon="5.43647">
        <ele>138.95</ele>
        <time>2021-11-14T11:16:37.000Z</time>
      </trkpt>
      <trkpt lat="43.35218" lon="5.4365">
        <ele>138.29</ele>
        <time>2021-11-14T11:16:41.000Z</time>
      </trkpt>
      <trkpt lat="43.35202" lon="5.43661">
        <ele>137.75</ele>
        <time>2021-11-14T11:16:48.000Z</time>
      </trkpt>
      <trkpt lat="43.35205" lon="5.43686">
        <ele>137.97</ele>
        <time>2021-11-14T11:16:54.000Z</time>
      </trkpt>
      <trkpt lat="43.35206" lon="5.43712">
        <ele>138.86</ele>
        <time>2021-11-14T11:17:01.000Z</time>
      </trkpt>
      <trkpt lat="43.35203" lon="5.43737">
        <ele>139.47</ele>
        <time>2021-11-14T11:17:07.000Z</time>
      </trkpt>
      <trkpt lat="43.35201" lon="5.43763">
        <ele>140.59</ele>
        <time>2021-11-14T11:17:14.000Z</time>
      </trkpt>
      <trkpt lat="43.35193" lon="5.43787">
        <ele>141.79</ele>
        <time>2021-11-14T11:17:22.000Z</time>
      </trkpt>
      <trkpt lat="43.35185" lon="5.43811">
        <ele>142.91</ele>
        <time>2021-11-14T11:17:29.000Z</time>
      </trkpt>
      <trkpt lat="43.35181" lon="5.43836">
        <ele>144.6</ele>
        <time>2021-11-14T11:17:36.000Z</time>
      </trkpt>
      <trkpt lat="43.35183" lon="5.43863">
        <ele>146.11</ele>
        <time>2021-11-14T11:17:46.000Z</time>
      </trkpt>
      <trkpt lat="43.35182" lon="5.43889">
        <ele>147.54</ele>
        <time>2021-11-14T11:17:52.000Z</time>
      </trkpt>
      <trkpt lat="43.35183" lon="5.43915">
        <ele>148.21</ele>
        <time>2021-11-14T11:17:58.000Z</time>
      </trkpt>
      <trkpt lat="43.35184" lon="5.43943">
        <ele>149.69</ele>
        <time>2021-11-14T11:18:05.000Z</time>
      </trkpt>
      <trkpt lat="43.3518" lon="5.43972">
        <ele>149.94</ele>
        <time>2021-11-14T11:18:12.000Z</time>
      </trkpt>
      <trkpt lat="43.35171" lon="5.43997">
        <ele>148.86</ele>
        <time>2021-11-14T11:18:16.000Z</time>
      </trkpt>
      <trkpt lat="43.35162" lon="5.44019">
        <ele>147.56</ele>
        <time>2021-11-14T11:18:20.000Z</time>
      </trkpt>
      <trkpt lat="43.35151" lon="5.44048">
        <ele>146.32</ele>
        <time>2021-11-14T11:18:24.000Z</time>
      </trkpt>
      <trkpt lat="43.3514" lon="5.44072">
        <ele>145.6</ele>
        <time>2021-11-14T11:18:27.000Z</time>
      </trkpt>
      <trkpt lat="43.35129" lon="5.44098">
        <ele>144.25</ele>
        <time>2021-11-14T11:18:30.000Z</time>
      </trkpt>
      <trkpt lat="43.3512" lon="5.44127">
        <ele>143.03</ele>
        <time>2021-11-14T11:18:33.000Z</time>
      </trkpt>
      <trkpt lat="43.3511" lon="5.44155">
        <ele>141.69</ele>
        <time>2021-11-14T11:18:36.000Z</time>
      </trkpt>
      <trkpt lat="43.35102" lon="5.44181">
        <ele>140.18</ele>
        <time>2021-11-14T11:18:39.000Z</time>
      </trkpt>
      <trkpt lat="43.35086" lon="5.44193">
        <ele>139.09</ele>
        <time>2021-11-14T11:19:03.000Z</time>
      </trkpt>
      <trkpt lat="43.35087" lon="5.44219">
        <ele>138.46</ele>
        <time>2021-11-14T11:19:34.000Z</time>
      </trkpt>
      <trkpt lat="43.35089" lon="5.44246">
        <ele>138.25</ele>
        <time>2021-11-14T11:19:42.000Z</time>
      </trkpt>
      <trkpt lat="43.35108" lon="5.44256">
        <ele>138.87</ele>
        <time>2021-11-14T11:19:46.000Z</time>
      </trkpt>
      <trkpt lat="43.35125" lon="5.44269">
        <ele>139.96</ele>
        <time>2021-11-14T11:19:50.000Z</time>
      </trkpt>
      <trkpt lat="43.35144" lon="5.44279">
        <ele>140.77</ele>
        <time>2021-11-14T11:19:55.000Z</time>
      </trkpt>
      <trkpt lat="43.35153" lon="5.44303">
        <ele>140.91</ele>
        <time>2021-11-14T11:20:01.000Z</time>
      </trkpt>
      <trkpt lat="43.35164" lon="5.44328">
        <ele>140.89</ele>
        <time>2021-11-14T11:20:06.000Z</time>
      </trkpt>
      <trkpt lat="43.35174" lon="5.4435">
        <ele>141.01</ele>
        <time>2021-11-14T11:20:10.000Z</time>
      </trkpt>
      <trkpt lat="43.35184" lon="5.44371">
        <ele>141.31</ele>
        <time>2021-11-14T11:20:14.000Z</time>
      </trkpt>
      <trkpt lat="43.35198" lon="5.44394">
        <ele>141.96</ele>
        <time>2021-11-14T11:20:19.000Z</time>
      </trkpt>
      <trkpt lat="43.35212" lon="5.44415">
        <ele>143.13</ele>
        <time>2021-11-14T11:20:25.000Z</time>
      </trkpt>
      <trkpt lat="43.35204" lon="5.44437">
        <ele>142.77</ele>
        <time>2021-11-14T11:20:35.000Z</time>
      </trkpt>
      <trkpt lat="43.35186" lon="5.44448">
        <ele>142.2</ele>
        <time>2021-11-14T11:20:41.000Z</time>
      </trkpt>
      <trkpt lat="43.35168" lon="5.44458">
        <ele>141.95</ele>
        <time>2021-11-14T11:20:48.000Z</time>
      </trkpt>
      <trkpt lat="43.35154" lon="5.44438">
        <ele>140.27</ele>
        <time>2021-11-14T11:21:18.000Z</time>
      </trkpt>
    </trkseg>
  </trk>
</gpx>